Darstellungsparameter: Aktuell verwendete Einstellungen:
Skalierung der Graphiken ... ?
xyx+y,   Skalierungsfaktor:      Skalierung: Modus: x, Faktor: 1
Darstellungszeitraum ... ?
Vom - - bis: - -   Zeitraum: 19.06.2014 - 25.06.2014
Min/Max/Avg-Anzeige ... ?
Zeige MMA aktuell
Zeige MMA Monat
Zeige MMA alles
Zeige --A aktuell
Zeige --A Monat
Zeige --A alles
Keine MMA-Anzeige
MMA:
Keine MMA-Graphiken
MMA-Basis: 19.06.2014 - 25.06.2014
Quicknavigation für Darstellung... ?
Tage:      1T, 2T, 3T, 5T -1T -2T -3T -5T +1T +2T +3T +5T
Wochen: 1W, 2W, 3W -1W -2W -3W +1W +2W +3W
Monate: 1M, 3M, 6M -1M -3M -6M +1M +3M +6M
Jahre:    1J, 3J, 5J, 10J -1J -3J -5J -10J +1J +3J +5J +10J
Nutze für die Darstellung ... ?
Originaldaten oder Mittelwerte auf ...
Stundenbasis Tagesbasis Wochenbasis
Monatsbasis Jahresbasis      Datenbasis: Original-Daten
Darstellen als:
Statistik (Auto) Statistik J:M      Darstellung:
Zur Graphik,    zurück zur Übersicht aller Sensoren.
 
Tabellarische Datenbersicht: ?
 
Sensor: Nr:Datum:Temp:Abs-Feuchte:Windchill:Wind:
Aussen-T/F 1 19-06-2014 00:00:00 15 C 9.87 g/m*3 15 C 0 km/h
2 19-06-2014 00:05:00 14.9 C 9.81 g/m*3 14.9 C 0 km/h
3 19-06-2014 00:10:00 14.9 C 9.81 g/m*3 14.9 C 0 km/h
4 19-06-2014 00:15:00 14.8 C 9.75 g/m*3 14.8 C 0 km/h
5 19-06-2014 00:20:00 14.8 C 9.75 g/m*3 14.8 C 0 km/h
6 19-06-2014 00:25:00 14.8 C 9.88 g/m*3 14.8 C 0 km/h
7 19-06-2014 00:30:00 14.7 C 9.82 g/m*3 14.7 C 0 km/h
8 19-06-2014 00:35:00 14.6 C 9.76 g/m*3 14.6 C 0 km/h
9 19-06-2014 00:40:00 14.4 C 9.77 g/m*3 14.4 C 0 km/h
10 19-06-2014 00:45:00 14.3 C 9.71 g/m*3 14.3 C 0 km/h
11 19-06-2014 00:50:00 14.3 C 9.83 g/m*3 14.3 C 0 km/h
12 19-06-2014 00:55:00 14.2 C 9.77 g/m*3 14.2 C 0 km/h
13 19-06-2014 01:00:00 14 C 9.77 g/m*3 14 C 0 km/h
14 19-06-2014 01:05:00 13.9 C 9.83 g/m*3 13.9 C 0 km/h
15 19-06-2014 01:10:00 13.9 C 9.83 g/m*3 13.9 C 0 km/h
16 19-06-2014 01:15:00 13.8 C 9.77 g/m*3 13.8 C 0 km/h
17 19-06-2014 01:20:00 13.7 C 9.71 g/m*3 13.7 C 0 km/h
18 19-06-2014 01:25:00 13.7 C 9.83 g/m*3 13.7 C 0 km/h
19 19-06-2014 01:30:00 13.6 C 9.77 g/m*3 13.6 C 0 km/h
20 19-06-2014 01:35:00 13.6 C 9.77 g/m*3 13.6 C 0 km/h
21 19-06-2014 01:40:00 13.4 C 9.65 g/m*3 13.4 C 0 km/h
22 19-06-2014 01:45:00 13.4 C 9.76 g/m*3 13.4 C 0 km/h
23 19-06-2014 01:50:00 13.3 C 9.7 g/m*3 13.3 C 0 km/h
24 19-06-2014 01:55:00 13.2 C 9.64 g/m*3 13.2 C 0 km/h
25 19-06-2014 02:00:00 13.1 C 9.7 g/m*3 13.1 C 0 km/h
Sensor: Nr:Datum:Temp:Abs-Feuchte:Windchill:Wind:
Aussen-T/F 26 19-06-2014 02:05:00 12.9 C 9.58 g/m*3 12.9 C 0 km/h
27 19-06-2014 02:10:00 12.8 C 9.63 g/m*3 12.8 C 0 km/h
28 19-06-2014 02:15:00 12.7 C 9.57 g/m*3 12.7 C 0 km/h
29 19-06-2014 02:20:00 12.6 C 9.62 g/m*3 12.6 C 0 km/h
30 19-06-2014 02:25:00 12.6 C 9.62 g/m*3 12.6 C 0 km/h
31 19-06-2014 02:30:00 12.5 C 9.57 g/m*3 12.5 C 0 km/h
32 19-06-2014 02:35:00 12.4 C 9.62 g/m*3 12.4 C 1.6 km/h
33 19-06-2014 02:40:00 12.3 C 9.56 g/m*3 12.3 C 0 km/h
34 19-06-2014 02:45:00 12.2 C 9.5 g/m*3 12.2 C 0 km/h
35 19-06-2014 02:50:00 12.1 C 9.54 g/m*3 12.1 C 0 km/h
36 19-06-2014 02:55:00 12.1 C 9.54 g/m*3 12.1 C 0 km/h
37 19-06-2014 03:00:00 11.9 C 9.43 g/m*3 11.9 C 0 km/h
38 19-06-2014 03:05:00 11.9 C 9.43 g/m*3 11.9 C 0 km/h
39 19-06-2014 03:10:00 11.8 C 9.37 g/m*3 11.8 C 0 km/h
40 19-06-2014 03:15:00 11.8 C 9.47 g/m*3 11.8 C 0 km/h
41 19-06-2014 03:20:00 11.7 C 9.41 g/m*3 11.7 C 0 km/h
42 19-06-2014 03:25:00 11.6 C 9.35 g/m*3 11.6 C 0 km/h
43 19-06-2014 03:30:00 11.6 C 9.46 g/m*3 11.6 C 0 km/h
44 19-06-2014 03:35:00 11.5 C 9.4 g/m*3 11.5 C 0 km/h
45 19-06-2014 03:40:00 11.5 C 9.4 g/m*3 11.5 C 0 km/h
46 19-06-2014 03:45:00 11.4 C 9.34 g/m*3 11.4 C 0 km/h
47 19-06-2014 03:50:00 11.4 C 9.34 g/m*3 11.4 C 0 km/h
48 19-06-2014 03:55:00 11.3 C 9.28 g/m*3 11.3 C 0 km/h
49 19-06-2014 04:00:00 11.3 C 9.28 g/m*3 11.3 C 0 km/h
50 19-06-2014 04:05:00 11.3 C 9.38 g/m*3 11.3 C 0 km/h
Sensor: Nr:Datum:Temp:Abs-Feuchte:Windchill:Wind:
Aussen-T/F 51 19-06-2014 04:10:00 11.2 C 9.33 g/m*3 11.2 C 0 km/h
52 19-06-2014 04:15:00 11.2 C 9.33 g/m*3 11.2 C 0 km/h
53 19-06-2014 04:20:00 11.2 C 9.33 g/m*3 11.2 C 0 km/h
54 19-06-2014 04:25:00 11.2 C 9.33 g/m*3 11.2 C 0 km/h
55 19-06-2014 04:30:00 11.1 C 9.27 g/m*3 11.1 C 0 km/h
56 19-06-2014 04:35:00 11.1 C 9.27 g/m*3 11.1 C 0 km/h
57 19-06-2014 04:40:00 11.1 C 9.37 g/m*3 11.1 C 0 km/h
58 19-06-2014 04:45:00 11.1 C 9.37 g/m*3 11.1 C 0 km/h
59 19-06-2014 04:50:00 11.1 C 9.37 g/m*3 11.1 C 0 km/h
60 19-06-2014 04:55:00 11.2 C 9.43 g/m*3 11.2 C 0 km/h
61 19-06-2014 05:00:00 11.3 C 9.59 g/m*3 11.3 C 0 km/h
62 19-06-2014 05:05:00 11.4 C 9.55 g/m*3 11.4 C 1.6 km/h
63 19-06-2014 05:10:00 11.4 C 9.55 g/m*3 11.4 C 3.2 km/h
64 19-06-2014 05:15:00 11.6 C 9.67 g/m*3 11.6 C 3.2 km/h
65 19-06-2014 05:20:00 11.7 C 9.62 g/m*3 11.7 C 3.2 km/h
66 19-06-2014 05:25:00 11.7 C 9.62 g/m*3 11.7 C 1.6 km/h
67 19-06-2014 05:30:00 11.7 C 9.62 g/m*3 11.7 C 3.2 km/h
68 19-06-2014 05:35:00 11.7 C 9.62 g/m*3 11.7 C 1.6 km/h
69 19-06-2014 05:40:00 11.6 C 9.56 g/m*3 11.6 C 0 km/h
70 19-06-2014 05:45:00 11.5 C 9.5 g/m*3 11.5 C 0 km/h
71 19-06-2014 05:50:00 11.5 C 9.5 g/m*3 11.5 C 0 km/h
72 19-06-2014 05:55:00 11.4 C 9.44 g/m*3 11.4 C 0 km/h
73 19-06-2014 06:00:00 11.3 C 9.38 g/m*3 11.3 C 1.6 km/h
74 19-06-2014 06:05:00 11.3 C 9.49 g/m*3 11.3 C 0 km/h
75 19-06-2014 06:10:00 11.3 C 9.49 g/m*3 11.3 C 0 km/h
Sensor: Nr:Datum:Temp:Abs-Feuchte:Windchill:Wind:
Aussen-T/F 76 19-06-2014 06:15:00 11.3 C 9.49 g/m*3 11.3 C 0 km/h
77 19-06-2014 06:20:00 11.4 C 9.55 g/m*3 11.4 C 0 km/h
78 19-06-2014 06:25:00 11.6 C 9.67 g/m*3 11.6 C 3.2 km/h
79 19-06-2014 06:30:00 11.7 C 9.73 g/m*3 11.7 C 1.6 km/h
80 19-06-2014 06:35:00 11.8 C 9.79 g/m*3 11.8 C 3.2 km/h
81 19-06-2014 06:40:00 11.9 C 9.74 g/m*3 11.9 C 3.2 km/h
82 19-06-2014 06:45:00 12.1 C 9.87 g/m*3 12.1 C 3.2 km/h
83 19-06-2014 06:50:00 12.2 C 9.82 g/m*3 12.2 C 1.6 km/h
84 19-06-2014 06:55:00 12.2 C 9.82 g/m*3 12.2 C 0 km/h
85 19-06-2014 07:00:00 12.4 C 9.94 g/m*3 12.4 C 4.8 km/h
86 19-06-2014 07:05:00 12.5 C 9.89 g/m*3 12.5 C 0 km/h
87 19-06-2014 07:10:00 12.7 C 10.02 g/m*3 12.7 C 0 km/h
88 19-06-2014 07:15:00 12.8 C 10.08 g/m*3 12.8 C 3.2 km/h
89 19-06-2014 07:20:00 12.9 C 10.03 g/m*3 12.9 C 1.6 km/h
90 19-06-2014 07:25:00 12.9 C 10.03 g/m*3 12.9 C 3.2 km/h
91 19-06-2014 07:30:00 12.9 C 10.03 g/m*3 12.9 C 3.2 km/h
92 19-06-2014 07:35:00 13 C 10.09 g/m*3 13 C 0 km/h
93 19-06-2014 07:40:00 13.1 C 10.16 g/m*3 13.1 C 1.6 km/h
94 19-06-2014 07:45:00 13.2 C 10.22 g/m*3 13.2 C 0 km/h
95 19-06-2014 07:50:00 13.3 C 10.4 g/m*3 13.3 C 0 km/h
96 19-06-2014 07:55:00 13.6 C 10.59 g/m*3 13.6 C 0 km/h
97 19-06-2014 08:00:00 13.8 C 10.48 g/m*3 13.8 C 1.6 km/h
98 19-06-2014 08:05:00 13.8 C 10.37 g/m*3 13.8 C 3.2 km/h
99 19-06-2014 08:10:00 13.9 C 10.55 g/m*3 13.9 C 3.2 km/h
100 19-06-2014 08:15:00 14.1 C 10.68 g/m*3 14.1 C 1.6 km/h
Sensor: Nr:Datum:Temp:Abs-Feuchte:Windchill:Wind:
Aussen-T/F 101 19-06-2014 08:20:00 14.2 C 10.62 g/m*3 14.2 C 3.2 km/h
102 19-06-2014 08:25:00 14.3 C 10.69 g/m*3 14.3 C 1.6 km/h
103 19-06-2014 08:30:00 14.4 C 10.63 g/m*3 14.4 C 6.4 km/h
104 19-06-2014 08:35:00 14.5 C 10.7 g/m*3 14.5 C 4.8 km/h
105 19-06-2014 08:40:00 14.6 C 10.76 g/m*3 14.6 C 1.6 km/h
106 19-06-2014 08:45:00 14.6 C 10.64 g/m*3 14.6 C 3.2 km/h
107 19-06-2014 08:50:00 14.6 C 10.64 g/m*3 14.6 C 1.6 km/h
108 19-06-2014 08:55:00 14.6 C 10.51 g/m*3 14.6 C 6.4 km/h
109 19-06-2014 09:00:00 14.6 C 10.51 g/m*3 14.6 C 8.1 km/h
110 19-06-2014 09:05:00 14.6 C 10.39 g/m*3 14.6 C 9.7 km/h
111 19-06-2014 09:10:00 14.6 C 10.51 g/m*3 14.6 C 6.4 km/h
112 19-06-2014 09:15:00 14.6 C 10.51 g/m*3 14.6 C 6.4 km/h
113 19-06-2014 09:20:00 14.7 C 10.58 g/m*3 14.7 C 4.8 km/h
114 19-06-2014 09:25:00 14.8 C 10.64 g/m*3 14.8 C 8.1 km/h
115 19-06-2014 09:30:00 14.9 C 10.45 g/m*3 14.9 C 6.4 km/h
116 19-06-2014 09:35:00 15 C 10.51 g/m*3 15 C 1.6 km/h
117 19-06-2014 09:40:00 15.1 C 10.32 g/m*3 15.1 C 6.4 km/h
118 19-06-2014 09:45:00 15.3 C 10.45 g/m*3 15.3 C 6.4 km/h
119 19-06-2014 09:50:00 15.4 C 10.38 g/m*3 15.4 C 6.4 km/h
120 19-06-2014 09:55:00 15.6 C 10.24 g/m*3 15.6 C 8.1 km/h
121 19-06-2014 10:00:00 15.7 C 10.17 g/m*3 15.7 C 4.8 km/h
122 19-06-2014 10:05:00 15.8 C 10.1 g/m*3 15.8 C 8.1 km/h
123 19-06-2014 10:10:00 15.8 C 9.96 g/m*3 15.8 C 11.3 km/h
124 19-06-2014 10:15:00 15.7 C 10.03 g/m*3 15.7 C 11.3 km/h
125 19-06-2014 10:20:00 15.7 C 10.03 g/m*3 15.7 C 8.1 km/h
Sensor: Nr:Datum:Temp:Abs-Feuchte:Windchill:Wind:
Aussen-T/F 126 19-06-2014 10:25:00 15.7 C 9.77 g/m*3 15.7 C 9.7 km/h
127 19-06-2014 10:30:00 15.8 C 9.83 g/m*3 15.8 C 9.7 km/h
128 19-06-2014 10:35:00 15.8 C 9.69 g/m*3 15.8 C 16.1 km/h
129 19-06-2014 10:40:00 15.8 C 9.83 g/m*3 15.8 C 8.1 km/h
130 19-06-2014 10:45:00 15.8 C 9.69 g/m*3 15.8 C 11.3 km/h
131 19-06-2014 10:50:00 15.8 C 9.69 g/m*3 15.8 C 11.3 km/h
132 19-06-2014 10:55:00 15.9 C 9.62 g/m*3 15.9 C 9.7 km/h
133 19-06-2014 11:00:00 15.9 C 9.75 g/m*3 15.9 C 8.1 km/h
134 19-06-2014 11:05:00 15.9 C 9.62 g/m*3 15.9 C 9.7 km/h
135 19-06-2014 11:10:00 15.9 C 9.48 g/m*3 15.9 C 9.7 km/h
136 19-06-2014 11:15:00 15.9 C 9.48 g/m*3 15.9 C 9.7 km/h
137 19-06-2014 11:20:00 15.9 C 9.48 g/m*3 15.9 C 11.3 km/h
138 19-06-2014 11:25:00 15.9 C 9.62 g/m*3 15.9 C 6.4 km/h
139 19-06-2014 11:30:00 16.1 C 9.6 g/m*3 16.1 C 8.1 km/h
140 19-06-2014 11:35:00 16.3 C 9.71 g/m*3 16.3 C 8.1 km/h
141 19-06-2014 11:40:00 16.2 C 9.65 g/m*3 16.2 C 11.3 km/h
142 19-06-2014 11:45:00 16.3 C 9.57 g/m*3 16.3 C 11.3 km/h
143 19-06-2014 11:50:00 16.3 C 9.43 g/m*3 16.3 C 9.7 km/h
144 19-06-2014 11:55:00 16.3 C 9.57 g/m*3 16.3 C 8.1 km/h
145 19-06-2014 12:00:00 16.4 C 9.49 g/m*3 16.4 C 8.1 km/h
146 19-06-2014 12:05:00 16.3 C 9.57 g/m*3 16.3 C 8.1 km/h
147 19-06-2014 12:10:00 16.4 C 9.77 g/m*3 16.4 C 8.1 km/h
148 19-06-2014 12:15:00 16.5 C 9.55 g/m*3 16.5 C 9.7 km/h
149 19-06-2014 12:20:00 16.6 C 9.61 g/m*3 16.6 C 11.3 km/h
150 19-06-2014 12:25:00 16.9 C 9.78 g/m*3 16.9 C 9.7 km/h
Sensor: Nr:Datum:Temp:Abs-Feuchte:Windchill:Wind:
Aussen-T/F 151 19-06-2014 12:30:00 17.2 C 9.81 g/m*3 17.2 C 9.7 km/h
152 19-06-2014 12:35:00 17.6 C 10.05 g/m*3 17.6 C 6.4 km/h
153 19-06-2014 12:40:00 17.8 C 9.87 g/m*3 17.8 C 6.4 km/h
154 19-06-2014 12:45:00 18.2 C 10.1 g/m*3 18.2 C 4.8 km/h
155 19-06-2014 12:50:00 18.2 C 9.95 g/m*3 18.2 C 9.7 km/h
156 19-06-2014 12:55:00 17.9 C 9.77 g/m*3 17.9 C 11.3 km/h
157 19-06-2014 13:00:00 17.9 C 9.77 g/m*3 17.9 C 8.1 km/h
158 19-06-2014 13:05:00 17.9 C 9.77 g/m*3 17.9 C 6.4 km/h
159 19-06-2014 13:10:00 18.1 C 9.58 g/m*3 18.1 C 8.1 km/h
160 19-06-2014 13:15:00 18.1 C 9.43 g/m*3 18.1 C 9.7 km/h
161 19-06-2014 13:20:00 17.9 C 9.47 g/m*3 17.9 C 9.7 km/h
162 19-06-2014 13:25:00 17.9 C 9.62 g/m*3 17.9 C 11.3 km/h
163 19-06-2014 13:30:00 18.1 C 9.58 g/m*3 18.1 C 12.9 km/h
164 19-06-2014 13:35:00 18.2 C 9.79 g/m*3 18.2 C 9.7 km/h
165 19-06-2014 13:40:00 18.6 C 10.03 g/m*3 18.6 C 8.1 km/h
166 19-06-2014 13:45:00 18.7 C 9.61 g/m*3 18.7 C 11.3 km/h
167 19-06-2014 13:50:00 18.7 C 9.45 g/m*3 18.7 C 9.7 km/h
168 19-06-2014 13:55:00 18.6 C 9.55 g/m*3 18.6 C 12.9 km/h
169 19-06-2014 14:00:00 18.4 C 9.59 g/m*3 18.4 C 9.7 km/h
170 19-06-2014 14:05:00 18.7 C 9.77 g/m*3 18.7 C 11.3 km/h
171 19-06-2014 14:10:00 19.1 C 9.51 g/m*3 19.1 C 6.4 km/h
172 19-06-2014 14:15:00 19.4 C 9.34 g/m*3 19.4 C 11.3 km/h
173 19-06-2014 14:20:00 19.3 C 9.12 g/m*3 19.3 C 19.3 km/h
174 19-06-2014 14:25:00 19.3 C 9.12 g/m*3 19.3 C 16.1 km/h
175 19-06-2014 14:30:00 19.4 C 9.68 g/m*3 19.4 C 9.7 km/h
Sensor: Nr:Datum:Temp:Abs-Feuchte:Windchill:Wind:
Aussen-T/F 176 19-06-2014 14:35:00 19.4 C 9.51 g/m*3 19.4 C 12.9 km/h
177 19-06-2014 14:40:00 19.1 C 9.34 g/m*3 19.1 C 11.3 km/h
178 19-06-2014 14:45:00 18.8 C 9.66 g/m*3 18.8 C 9.7 km/h
179 19-06-2014 14:50:00 18.7 C 9.45 g/m*3 18.7 C 11.3 km/h
180 19-06-2014 14:55:00 18.9 C 9.4 g/m*3 18.9 C 11.3 km/h
181 19-06-2014 15:00:00 18.8 C 9.5 g/m*3 18.8 C 14.5 km/h
182 19-06-2014 15:05:00 18.8 C 9.66 g/m*3 18.8 C 14.5 km/h
183 19-06-2014 15:10:00 18.8 C 9.5 g/m*3 18.8 C 14.5 km/h
184 19-06-2014 15:15:00 19.2 C 9.56 g/m*3 19.2 C 11.3 km/h
185 19-06-2014 15:20:00 19.3 C 9.79 g/m*3 19.3 C 9.7 km/h
186 19-06-2014 15:25:00 19.3 C 9.62 g/m*3 19.3 C 17.7 km/h
187 19-06-2014 15:30:00 19 C 9.45 g/m*3 19 C 14.5 km/h
188 19-06-2014 15:35:00 18.9 C 9.56 g/m*3 18.9 C 14.5 km/h
189 19-06-2014 15:40:00 19.3 C 9.95 g/m*3 19.3 C 12.9 km/h
190 19-06-2014 15:45:00 20 C 10.02 g/m*3 20 C 12.9 km/h
191 19-06-2014 15:50:00 20.6 C 9.66 g/m*3 20.6 C 11.3 km/h
192 19-06-2014 15:55:00 20.7 C 9.72 g/m*3 20.7 C 9.7 km/h
193 19-06-2014 16:00:00 20.6 C 10.02 g/m*3 20.6 C 11.3 km/h
194 19-06-2014 16:05:00 20.6 C 9.66 g/m*3 20.6 C 12.9 km/h
195 19-06-2014 16:10:00 20.5 C 9.79 g/m*3 20.5 C 14.5 km/h
196 19-06-2014 16:15:00 20.7 C 9.72 g/m*3 20.7 C 8.1 km/h
197 19-06-2014 16:20:00 20.9 C 9.65 g/m*3 20.9 C 11.3 km/h
198 19-06-2014 16:25:00 20.8 C 9.23 g/m*3 20.8 C 11.3 km/h
199 19-06-2014 16:30:00 20.7 C 9.72 g/m*3 20.7 C 11.3 km/h
200 19-06-2014 16:35:00 20.6 C 9.84 g/m*3 20.6 C 9.7 km/h
Sensor: Nr:Datum:Temp:Abs-Feuchte:Windchill:Wind:
Aussen-T/F 201 19-06-2014 16:40:00 20.5 C 9.79 g/m*3 20.5 C 12.9 km/h
202 19-06-2014 16:45:00 20.9 C 10.02 g/m*3 20.9 C 11.3 km/h
203 19-06-2014 16:50:00 21.2 C 10.01 g/m*3 21.2 C 11.3 km/h
204 19-06-2014 16:55:00 21.4 C 9.94 g/m*3 21.4 C 11.3 km/h
205 19-06-2014 17:00:00 21.5 C 9.99 g/m*3 21.5 C 11.3 km/h
206 19-06-2014 17:05:00 21.2 C 9.64 g/m*3 21.2 C 9.7 km/h
207 19-06-2014 17:10:00 21.3 C 9.69 g/m*3 21.3 C 14.5 km/h
208 19-06-2014 17:15:00 21.3 C 9.88 g/m*3 21.3 C 11.3 km/h
209 19-06-2014 17:20:00 21.2 C 9.82 g/m*3 21.2 C 6.4 km/h
210 19-06-2014 17:25:00 20.8 C 9.6 g/m*3 20.8 C 9.7 km/h
211 19-06-2014 17:30:00 20.7 C 9.72 g/m*3 20.7 C 6.4 km/h
212 19-06-2014 17:35:00 20.5 C 9.61 g/m*3 20.5 C 11.3 km/h
213 19-06-2014 17:40:00 20.3 C 9.5 g/m*3 20.3 C 9.7 km/h
214 19-06-2014 17:45:00 20.2 C 9.62 g/m*3 20.2 C 8.1 km/h
215 19-06-2014 17:50:00 20.2 C 9.79 g/m*3 20.2 C 8.1 km/h
216 19-06-2014 17:55:00 20.2 C 9.79 g/m*3 20.2 C 8.1 km/h
217 19-06-2014 18:00:00 20.2 C 9.79 g/m*3 20.2 C 11.3 km/h
218 19-06-2014 18:05:00 20.1 C 9.91 g/m*3 20.1 C 12.9 km/h
219 19-06-2014 18:10:00 19.8 C 9.74 g/m*3 19.8 C 11.3 km/h
220 19-06-2014 18:15:00 19.7 C 9.68 g/m*3 19.7 C 16.1 km/h
221 19-06-2014 18:20:00 19.6 C 9.79 g/m*3 19.6 C 9.7 km/h
222 19-06-2014 18:25:00 19.6 C 9.62 g/m*3 19.6 C 11.3 km/h
223 19-06-2014 18:30:00 19.5 C 9.73 g/m*3 19.5 C 9.7 km/h
224 19-06-2014 18:35:00 19.4 C 9.84 g/m*3 19.4 C 9.7 km/h
225 19-06-2014 18:40:00 19.3 C 9.62 g/m*3 19.3 C 12.9 km/h
Sensor: Nr:Datum:Temp:Abs-Feuchte:Windchill:Wind:
Aussen-T/F 226 19-06-2014 18:45:00 19.1 C 9.84 g/m*3 19.1 C 12.9 km/h
227 19-06-2014 18:50:00 19 C 9.94 g/m*3 19 C 8.1 km/h
228 19-06-2014 18:55:00 19.1 C 10 g/m*3 19.1 C 12.9 km/h
229 19-06-2014 19:00:00 18.9 C 9.72 g/m*3 18.9 C 11.3 km/h
230 19-06-2014 19:05:00 18.8 C 9.82 g/m*3 18.8 C 14.5 km/h
231 19-06-2014 19:10:00 18.8 C 9.99 g/m*3 18.8 C 11.3 km/h
232 19-06-2014 19:15:00 18.8 C 9.82 g/m*3 18.8 C 16.1 km/h
233 19-06-2014 19:20:00 18.6 C 9.71 g/m*3 18.6 C 14.5 km/h
234 19-06-2014 19:25:00 18.4 C 9.91 g/m*3 18.4 C 11.3 km/h
235 19-06-2014 19:30:00 18.4 C 9.75 g/m*3 18.4 C 11.3 km/h
236 19-06-2014 19:35:00 18.4 C 9.75 g/m*3 18.4 C 12.9 km/h
237 19-06-2014 19:40:00 18.3 C 9.85 g/m*3 18.3 C 9.7 km/h
238 19-06-2014 19:45:00 18.3 C 9.85 g/m*3 18.3 C 9.7 km/h
239 19-06-2014 19:50:00 18.2 C 9.95 g/m*3 18.2 C 11.3 km/h
240 19-06-2014 19:55:00 18.1 C 9.89 g/m*3 18.1 C 8.1 km/h
241 19-06-2014 20:00:00 18 C 9.83 g/m*3 18 C 14.5 km/h
242 19-06-2014 20:05:00 17.9 C 9.92 g/m*3 17.9 C 8.1 km/h
243 19-06-2014 20:10:00 17.8 C 9.87 g/m*3 17.8 C 6.4 km/h
244 19-06-2014 20:15:00 17.8 C 10.02 g/m*3 17.8 C 9.7 km/h
245 19-06-2014 20:20:00 17.7 C 9.96 g/m*3 17.7 C 8.1 km/h
246 19-06-2014 20:25:00 17.6 C 9.9 g/m*3 17.6 C 6.4 km/h
247 19-06-2014 20:30:00 17.6 C 10.2 g/m*3 17.6 C 3.2 km/h
248 19-06-2014 20:35:00 17.5 C 10.44 g/m*3 17.5 C 8.1 km/h
249 19-06-2014 20:40:00 17.3 C 10.61 g/m*3 17.3 C 9.7 km/h
250 19-06-2014 20:45:00 16.9 C 10.79 g/m*3 16.9 C 6.4 km/h
Sensor: Nr:Datum:Temp:Abs-Feuchte:Windchill:Wind:
Aussen-T/F 251 19-06-2014 20:50:00 16.5 C 10.81 g/m*3 16.5 C 9.7 km/h
252 19-06-2014 20:55:00 16.2 C 11.03 g/m*3 16.2 C 4.8 km/h
253 19-06-2014 21:00:00 16 C 11.04 g/m*3 16 C 4.8 km/h
254 19-06-2014 21:05:00 15.8 C 11.17 g/m*3 15.8 C 0 km/h
255 19-06-2014 21:10:00 15.7 C 11.24 g/m*3 15.7 C 0 km/h
256 19-06-2014 21:15:00 15.5 C 11.1 g/m*3 15.5 C 4.8 km/h
257 19-06-2014 21:20:00 15.3 C 10.84 g/m*3 15.3 C 8.1 km/h
258 19-06-2014 21:25:00 15.3 C 11.1 g/m*3 15.3 C 3.2 km/h
259 19-06-2014 21:30:00 15.3 C 11.23 g/m*3 15.3 C 3.2 km/h
260 19-06-2014 21:35:00 15.2 C 11.16 g/m*3 15.2 C 0 km/h
261 19-06-2014 21:40:00 15.1 C 11.35 g/m*3 15.1 C 4.8 km/h
262 19-06-2014 21:45:00 14.9 C 11.09 g/m*3 14.9 C 6.4 km/h
263 19-06-2014 21:50:00 14.9 C 11.22 g/m*3 14.9 C 0 km/h
264 19-06-2014 21:55:00 14.8 C 11.27 g/m*3 14.8 C 0 km/h
265 19-06-2014 22:00:00 14.7 C 11.33 g/m*3 14.7 C 0 km/h
266 19-06-2014 22:05:00 14.7 C 11.33 g/m*3 14.7 C 0 km/h
267 19-06-2014 22:10:00 14.6 C 11.26 g/m*3 14.6 C 1.6 km/h
268 19-06-2014 22:15:00 14.6 C 11.39 g/m*3 14.6 C 1.6 km/h
269 19-06-2014 22:20:00 14.5 C 11.32 g/m*3 14.5 C 0 km/h
270 19-06-2014 22:25:00 14.4 C 11.25 g/m*3 14.4 C 0 km/h
271 19-06-2014 22:30:00 14.4 C 11.25 g/m*3 14.4 C 0 km/h
272 19-06-2014 22:35:00 14.4 C 11.37 g/m*3 14.4 C 0 km/h
273 19-06-2014 22:40:00 14.4 C 11.37 g/m*3 14.4 C 3.2 km/h
274 19-06-2014 23:30:00 14.4 C 11 g/m*3 14.4 C 4.8 km/h
275 19-06-2014 23:35:00 14.5 C 11.07 g/m*3 14.5 C 4.8 km/h
Sensor: Nr:Datum:Temp:Abs-Feuchte:Windchill:Wind:
Aussen-T/F 276 19-06-2014 23:40:00 14.6 C 11.14 g/m*3 14.6 C 4.8 km/h
277 19-06-2014 23:45:00 14.6 C 11.14 g/m*3 14.6 C 4.8 km/h
278 19-06-2014 23:50:00 14.6 C 11.14 g/m*3 14.6 C 6.4 km/h
279 20-06-2014 06:30:00 13.1 C 9.93 g/m*3 13.1 C 8.1 km/h
280 20-06-2014 06:35:00 13.1 C 9.93 g/m*3 13.1 C 9.7 km/h
281 20-06-2014 06:40:00 13.1 C 9.93 g/m*3 13.1 C 8.1 km/h
282 20-06-2014 06:45:00 13.1 C 9.93 g/m*3 13.1 C 4.8 km/h
283 20-06-2014 06:50:00 13.1 C 9.93 g/m*3 13.1 C 4.8 km/h
284 20-06-2014 06:55:00 13.1 C 9.93 g/m*3 13.1 C 8.1 km/h
285 20-06-2014 07:00:00 13.1 C 9.93 g/m*3 13.1 C 9.7 km/h
286 20-06-2014 07:05:00 13.1 C 9.93 g/m*3 13.1 C 4.8 km/h
287 20-06-2014 07:10:00 13.2 C 9.99 g/m*3 13.2 C 6.4 km/h
288 20-06-2014 07:15:00 13.2 C 9.87 g/m*3 13.2 C 8.1 km/h
289 20-06-2014 07:20:00 13.3 C 9.94 g/m*3 13.3 C 9.7 km/h
290 20-06-2014 07:25:00 13.3 C 9.94 g/m*3 13.3 C 6.4 km/h
291 20-06-2014 07:30:00 13.3 C 9.94 g/m*3 13.3 C 8.1 km/h
292 20-06-2014 07:35:00 13.3 C 9.94 g/m*3 13.3 C 4.8 km/h
293 20-06-2014 07:40:00 13.3 C 9.94 g/m*3 13.3 C 3.2 km/h
294 20-06-2014 07:45:00 13.3 C 9.94 g/m*3 13.3 C 6.4 km/h
295 20-06-2014 07:50:00 13.3 C 9.82 g/m*3 13.3 C 11.3 km/h
296 20-06-2014 07:55:00 13.3 C 9.82 g/m*3 13.3 C 8.1 km/h
297 20-06-2014 08:00:00 13.3 C 9.82 g/m*3 13.3 C 4.8 km/h
298 20-06-2014 08:05:00 13.4 C 9.88 g/m*3 13.4 C 6.4 km/h
299 20-06-2014 08:10:00 13.4 C 9.88 g/m*3 13.4 C 6.4 km/h
300 20-06-2014 08:15:00 13.4 C 9.88 g/m*3 13.4 C 9.7 km/h
Sensor: Nr:Datum:Temp:Abs-Feuchte:Windchill:Wind:
Aussen-T/F 301 20-06-2014 08:20:00 13.5 C 9.94 g/m*3 13.5 C 6.4 km/h
302 20-06-2014 08:25:00 13.6 C 9.89 g/m*3 13.6 C 4.8 km/h
303 20-06-2014 08:30:00 13.6 C 9.77 g/m*3 13.6 C 9.7 km/h
304 20-06-2014 08:35:00 13.6 C 9.89 g/m*3 13.6 C 4.8 km/h
305 20-06-2014 08:40:00 13.6 C 10 g/m*3 13.6 C 11.3 km/h
306 20-06-2014 08:45:00 13.3 C 9.94 g/m*3 13.3 C 9.7 km/h
307 20-06-2014 08:50:00 13.3 C 10.17 g/m*3 13.3 C 4.8 km/h
308 20-06-2014 08:55:00 13.2 C 10.1 g/m*3 13.2 C 6.4 km/h
309 20-06-2014 09:00:00 13.2 C 10.1 g/m*3 13.2 C 8.1 km/h
310 20-06-2014 09:05:00 13.2 C 10.1 g/m*3 13.2 C 4.8 km/h
311 20-06-2014 09:10:00 13.3 C 10.17 g/m*3 13.3 C 4.8 km/h
312 20-06-2014 09:15:00 13.4 C 10.35 g/m*3 13.4 C 4.8 km/h
313 20-06-2014 09:20:00 13.5 C 10.18 g/m*3 13.5 C 6.4 km/h
314 20-06-2014 09:25:00 13.6 C 10.12 g/m*3 13.6 C 9.7 km/h
315 20-06-2014 09:30:00 13.7 C 10.18 g/m*3 13.7 C 8.1 km/h
316 20-06-2014 09:35:00 13.8 C 10.13 g/m*3 13.8 C 12.9 km/h
317 20-06-2014 09:40:00 13.8 C 10.01 g/m*3 13.8 C 12.9 km/h
318 20-06-2014 09:45:00 13.9 C 10.19 g/m*3 13.9 C 4.8 km/h
319 20-06-2014 09:50:00 14.1 C 10.07 g/m*3 14.1 C 6.4 km/h
320 20-06-2014 09:55:00 14.2 C 9.89 g/m*3 14.2 C 8.1 km/h
321 20-06-2014 10:00:00 14.5 C 10.07 g/m*3 14.5 C 8.1 km/h
322 20-06-2014 10:05:00 14.8 C 10.26 g/m*3 14.8 C 9.7 km/h
323 20-06-2014 10:10:00 15 C 10.13 g/m*3 15 C 12.9 km/h
324 20-06-2014 10:15:00 15.1 C 9.8 g/m*3 15.1 C 8.1 km/h
325 20-06-2014 10:20:00 15.2 C 10.12 g/m*3 15.2 C 8.1 km/h
Sensor: Nr:Datum:Temp:Abs-Feuchte:Windchill:Wind:
Aussen-T/F 326 20-06-2014 10:25:00 15.4 C 10.25 g/m*3 15.4 C 11.3 km/h
327 20-06-2014 10:30:00 15.6 C 10.11 g/m*3 15.6 C 9.7 km/h
328 20-06-2014 10:35:00 15.7 C 10.03 g/m*3 15.7 C 8.1 km/h
329 20-06-2014 10:40:00 15.9 C 10.02 g/m*3 15.9 C 9.7 km/h
330 20-06-2014 10:45:00 15.7 C 9.5 g/m*3 15.7 C 12.9 km/h
331 20-06-2014 10:50:00 15.3 C 9.4 g/m*3 15.3 C 14.5 km/h
332 20-06-2014 10:55:00 15.1 C 9.29 g/m*3 15.1 C 8.1 km/h
333 20-06-2014 11:00:00 14.9 C 9.43 g/m*3 14.9 C 9.7 km/h
334 20-06-2014 11:05:00 14.9 C 9.56 g/m*3 14.9 C 8.1 km/h
335 20-06-2014 11:10:00 14.9 C 9.69 g/m*3 14.9 C 4.8 km/h
336 20-06-2014 11:15:00 14.9 C 9.69 g/m*3 14.9 C 8.1 km/h
337 20-06-2014 11:20:00 14.9 C 9.56 g/m*3 14.9 C 12.9 km/h
338 20-06-2014 11:25:00 14.8 C 9.63 g/m*3 14.8 C 6.4 km/h
339 20-06-2014 11:30:00 14.8 C 9.63 g/m*3 14.8 C 8.1 km/h
340 20-06-2014 11:35:00 14.9 C 9.69 g/m*3 14.9 C 9.7 km/h
341 20-06-2014 11:40:00 14.9 C 9.81 g/m*3 14.9 C 6.4 km/h
342 20-06-2014 11:45:00 14.9 C 9.94 g/m*3 14.9 C 8.1 km/h
343 20-06-2014 11:50:00 14.9 C 9.81 g/m*3 14.9 C 8.1 km/h
344 20-06-2014 11:55:00 15.1 C 9.68 g/m*3 15.1 C 9.7 km/h
345 20-06-2014 12:00:00 15.2 C 9.86 g/m*3 15.2 C 6.4 km/h
346 20-06-2014 12:05:00 15.3 C 9.92 g/m*3 15.3 C 8.1 km/h
347 20-06-2014 12:10:00 15.3 C 9.92 g/m*3 15.3 C 8.1 km/h
348 20-06-2014 12:15:00 15.3 C 9.79 g/m*3 15.3 C 6.4 km/h
349 20-06-2014 12:20:00 15.4 C 9.99 g/m*3 15.4 C 4.8 km/h
350 20-06-2014 12:25:00 15.4 C 9.99 g/m*3 15.4 C 1.6 km/h
Sensor: Nr:Datum:Temp:Abs-Feuchte:Windchill:Wind:
Aussen-T/F 351 20-06-2014 12:30:00 15.6 C 9.97 g/m*3 15.6 C 4.8 km/h
352 20-06-2014 12:35:00 15.8 C 10.23 g/m*3 15.8 C 8.1 km/h
353 20-06-2014 12:40:00 15.9 C 10.02 g/m*3 15.9 C 4.8 km/h
354 20-06-2014 12:45:00 16.1 C 10.01 g/m*3 16.1 C 6.4 km/h
355 20-06-2014 12:50:00 16.1 C 9.6 g/m*3 16.1 C 8.1 km/h
356 20-06-2014 12:55:00 16 C 9.67 g/m*3 16 C 11.3 km/h
357 20-06-2014 13:00:00 15.9 C 9.62 g/m*3 15.9 C 11.3 km/h
358 20-06-2014 13:05:00 15.9 C 9.75 g/m*3 15.9 C 11.3 km/h
359 20-06-2014 13:10:00 15.8 C 9.69 g/m*3 15.8 C 4.8 km/h
360 20-06-2014 13:15:00 15.7 C 9.63 g/m*3 15.7 C 8.1 km/h
361 20-06-2014 13:20:00 15.4 C 9.33 g/m*3 15.4 C 17.7 km/h
362 20-06-2014 13:25:00 15.3 C 9.4 g/m*3 15.3 C 16.1 km/h
363 20-06-2014 13:30:00 15.2 C 9.48 g/m*3 15.2 C 4.8 km/h
364 20-06-2014 13:35:00 15.3 C 9.53 g/m*3 15.3 C 6.4 km/h
365 20-06-2014 13:40:00 15.4 C 9.46 g/m*3 15.4 C 6.4 km/h
366 20-06-2014 13:45:00 15.7 C 9.63 g/m*3 15.7 C 6.4 km/h
367 20-06-2014 13:50:00 15.8 C 9.42 g/m*3 15.8 C 11.3 km/h
368 20-06-2014 13:55:00 16.1 C 9.46 g/m*3 16.1 C 4.8 km/h
369 20-06-2014 14:00:00 16.3 C 9.43 g/m*3 16.3 C 8.1 km/h
370 20-06-2014 14:05:00 16.5 C 9.27 g/m*3 16.5 C 11.3 km/h
371 20-06-2014 14:10:00 16.5 C 9.27 g/m*3 16.5 C 9.7 km/h
372 20-06-2014 14:15:00 16.3 C 9.43 g/m*3 16.3 C 12.9 km/h
373 20-06-2014 14:20:00 16.1 C 9.32 g/m*3 16.1 C 12.9 km/h
374 20-06-2014 14:25:00 15.9 C 9.89 g/m*3 15.9 C 6.4 km/h
375 20-06-2014 14:30:00 15.6 C 9.84 g/m*3 15.6 C 9.7 km/h
Sensor: Nr:Datum:Temp:Abs-Feuchte:Windchill:Wind:
Aussen-T/F 376 20-06-2014 14:35:00 15.3 C 9.66 g/m*3 15.3 C 6.4 km/h
377 20-06-2014 14:40:00 15.2 C 9.73 g/m*3 15.2 C 3.2 km/h
378 20-06-2014 14:45:00 15.2 C 9.73 g/m*3 15.2 C 6.4 km/h
379 20-06-2014 14:50:00 15.2 C 9.48 g/m*3 15.2 C 6.4 km/h
380 20-06-2014 14:55:00 15.3 C 9.4 g/m*3 15.3 C 6.4 km/h
381 20-06-2014 15:00:00 15.5 C 9.25 g/m*3 15.5 C 9.7 km/h
382 20-06-2014 15:05:00 15.6 C 9.31 g/m*3 15.6 C 8.1 km/h
383 20-06-2014 15:10:00 15.7 C 9.5 g/m*3 15.7 C 3.2 km/h
384 20-06-2014 15:15:00 15.8 C 9.56 g/m*3 15.8 C 6.4 km/h
385 20-06-2014 15:20:00 16 C 9.4 g/m*3 16 C 8.1 km/h
386 20-06-2014 15:25:00 16.2 C 9.52 g/m*3 16.2 C 6.4 km/h
387 20-06-2014 15:30:00 16.3 C 9.3 g/m*3 16.3 C 8.1 km/h
388 20-06-2014 15:35:00 16.5 C 9.41 g/m*3 16.5 C 8.1 km/h
389 20-06-2014 15:40:00 16.7 C 9.66 g/m*3 16.7 C 8.1 km/h
390 20-06-2014 15:45:00 16.9 C 9.49 g/m*3 16.9 C 6.4 km/h
391 20-06-2014 15:50:00 17.2 C 9.67 g/m*3 17.2 C 4.8 km/h
392 20-06-2014 15:55:00 17.6 C 10.05 g/m*3 17.6 C 4.8 km/h
393 20-06-2014 16:00:00 17.8 C 9.71 g/m*3 17.8 C 9.7 km/h
394 20-06-2014 16:05:00 17.8 C 9.56 g/m*3 17.8 C 11.3 km/h
395 20-06-2014 16:10:00 17.7 C 9.66 g/m*3 17.7 C 9.7 km/h
396 20-06-2014 16:15:00 17.8 C 9.56 g/m*3 17.8 C 9.7 km/h
397 20-06-2014 16:20:00 17.8 C 9.71 g/m*3 17.8 C 6.4 km/h
398 20-06-2014 16:25:00 17.8 C 9.56 g/m*3 17.8 C 8.1 km/h
399 20-06-2014 16:30:00 17.9 C 9.62 g/m*3 17.9 C 6.4 km/h
400 20-06-2014 16:35:00 17.9 C 9.31 g/m*3 17.9 C 4.8 km/h
Sensor: Nr:Datum:Temp:Abs-Feuchte:Windchill:Wind:
Aussen-T/F 401 20-06-2014 16:40:00 17.8 C 8.95 g/m*3 17.8 C 8.1 km/h
402 20-06-2014 16:45:00 17.7 C 9.2 g/m*3 17.7 C 6.4 km/h
403 20-06-2014 16:50:00 17.6 C 9 g/m*3 17.6 C 4.8 km/h
404 20-06-2014 16:55:00 17.7 C 9.35 g/m*3 17.7 C 4.8 km/h
405 20-06-2014 17:00:00 17.9 C 9.31 g/m*3 17.9 C 6.4 km/h
406 20-06-2014 17:05:00 18.1 C 9.12 g/m*3 18.1 C 9.7 km/h
407 20-06-2014 17:10:00 18.2 C 9.01 g/m*3 18.2 C 8.1 km/h
408 20-06-2014 17:15:00 18.3 C 9.07 g/m*3 18.3 C 11.3 km/h
409 20-06-2014 17:20:00 18.1 C 8.81 g/m*3 18.1 C 9.7 km/h
410 20-06-2014 17:25:00 17.8 C 8.8 g/m*3 17.8 C 14.5 km/h
411 20-06-2014 17:30:00 17.7 C 8.9 g/m*3 17.7 C 8.1 km/h
412 20-06-2014 17:35:00 17.6 C 9 g/m*3 17.6 C 4.8 km/h
413 20-06-2014 17:40:00 17.4 C 8.89 g/m*3 17.4 C 9.7 km/h
414 20-06-2014 17:45:00 17.2 C 8.93 g/m*3 17.2 C 6.4 km/h
415 20-06-2014 17:50:00 17.1 C 8.88 g/m*3 17.1 C 9.7 km/h
416 20-06-2014 17:55:00 16.9 C 8.77 g/m*3 16.9 C 11.3 km/h
417 20-06-2014 18:00:00 16.9 C 8.92 g/m*3 16.9 C 6.4 km/h
418 20-06-2014 18:05:00 16.8 C 8.86 g/m*3 16.8 C 6.4 km/h
419 20-06-2014 18:10:00 16.8 C 8.86 g/m*3 16.8 C 6.4 km/h
420 20-06-2014 18:15:00 16.8 C 9.01 g/m*3 16.8 C 4.8 km/h
421 20-06-2014 18:20:00 16.8 C 8.86 g/m*3 16.8 C 8.1 km/h
422 20-06-2014 18:25:00 16.8 C 8.86 g/m*3 16.8 C 3.2 km/h
423 20-06-2014 18:30:00 16.9 C 8.92 g/m*3 16.9 C 4.8 km/h
424 20-06-2014 18:35:00 16.9 C 8.92 g/m*3 16.9 C 3.2 km/h
425 20-06-2014 18:40:00 16.9 C 8.92 g/m*3 16.9 C 6.4 km/h
Sensor: Nr:Datum:Temp:Abs-Feuchte:Windchill:Wind:
Aussen-T/F 426 20-06-2014 18:45:00 17 C 8.83 g/m*3 17 C 4.8 km/h
427 20-06-2014 18:50:00 17.1 C 8.88 g/m*3 17.1 C 8.1 km/h
428 20-06-2014 18:55:00 17.1 C 8.73 g/m*3 17.1 C 6.4 km/h
429 20-06-2014 19:00:00 17.1 C 8.88 g/m*3 17.1 C 11.3 km/h
430 20-06-2014 19:05:00 17.1 C 8.73 g/m*3 17.1 C 3.2 km/h
431 20-06-2014 19:10:00 17.1 C 8.88 g/m*3 17.1 C 3.2 km/h
432 20-06-2014 19:15:00 17.2 C 8.93 g/m*3 17.2 C 1.6 km/h
433 20-06-2014 19:20:00 17.3 C 8.99 g/m*3 17.3 C 1.6 km/h
434 20-06-2014 19:25:00 17.3 C 8.99 g/m*3 17.3 C 1.6 km/h
435 20-06-2014 19:30:00 17.4 C 9.04 g/m*3 17.4 C 1.6 km/h
436 20-06-2014 19:35:00 17.4 C 8.89 g/m*3 17.4 C 1.6 km/h
437 20-06-2014 19:40:00 17.4 C 8.89 g/m*3 17.4 C 6.4 km/h
438 20-06-2014 19:45:00 17.4 C 8.74 g/m*3 17.4 C 6.4 km/h
439 20-06-2014 19:50:00 17.4 C 9.04 g/m*3 17.4 C 6.4 km/h
440 20-06-2014 19:55:00 17.4 C 8.74 g/m*3 17.4 C 8.1 km/h
441 20-06-2014 20:00:00 17.4 C 8.3 g/m*3 17.4 C 11.3 km/h
442 20-06-2014 20:05:00 17.5 C 8.5 g/m*3 17.5 C 8.1 km/h
443 20-06-2014 20:10:00 17.5 C 8.65 g/m*3 17.5 C 3.2 km/h
444 20-06-2014 20:15:00 17.5 C 8.5 g/m*3 17.5 C 3.2 km/h
445 20-06-2014 20:20:00 17.4 C 8.6 g/m*3 17.4 C 1.6 km/h
446 20-06-2014 20:25:00 17.3 C 8.4 g/m*3 17.3 C 9.7 km/h
447 20-06-2014 20:30:00 17.2 C 8.64 g/m*3 17.2 C 9.7 km/h
448 20-06-2014 20:35:00 17 C 8.68 g/m*3 17 C 3.2 km/h
449 20-06-2014 20:40:00 16.5 C 9.13 g/m*3 16.5 C 0 km/h
450 20-06-2014 20:45:00 16 C 9.26 g/m*3 16 C 0 km/h
Sensor: Nr:Datum:Temp:Abs-Feuchte:Windchill:Wind:
Aussen-T/F 451 20-06-2014 20:50:00 15.7 C 8.96 g/m*3 15.7 C 3.2 km/h
452 20-06-2014 20:55:00 15.5 C 9.25 g/m*3 15.5 C 1.6 km/h
453 20-06-2014 21:00:00 15.3 C 9.14 g/m*3 15.3 C 4.8 km/h
454 20-06-2014 21:05:00 15.3 C 9.01 g/m*3 15.3 C 3.2 km/h
455 20-06-2014 21:10:00 15.3 C 9.27 g/m*3 15.3 C 0 km/h
456 20-06-2014 21:15:00 15.3 C 9.14 g/m*3 15.3 C 0 km/h
457 20-06-2014 21:20:00 15.3 C 8.75 g/m*3 15.3 C 8.1 km/h
458 20-06-2014 21:25:00 15.6 C 8.78 g/m*3 15.6 C 4.8 km/h
459 20-06-2014 21:30:00 15.8 C 8.75 g/m*3 15.8 C 6.4 km/h
460 20-06-2014 21:35:00 15.9 C 8.8 g/m*3 15.9 C 3.2 km/h
461 20-06-2014 21:40:00 15.9 C 8.8 g/m*3 15.9 C 3.2 km/h
462 20-06-2014 21:45:00 16 C 8.72 g/m*3 16 C 4.8 km/h
463 20-06-2014 21:50:00 16.1 C 8.77 g/m*3 16.1 C 9.7 km/h
464 20-06-2014 21:55:00 16.1 C 8.77 g/m*3 16.1 C 8.1 km/h
465 20-06-2014 22:00:00 16.1 C 8.77 g/m*3 16.1 C 8.1 km/h
466 20-06-2014 22:05:00 16.1 C 8.77 g/m*3 16.1 C 6.4 km/h
467 20-06-2014 22:10:00 16 C 8.86 g/m*3 16 C 6.4 km/h
468 20-06-2014 22:15:00 16 C 8.86 g/m*3 16 C 8.1 km/h
469 20-06-2014 22:20:00 15.9 C 8.94 g/m*3 15.9 C 1.6 km/h
470 20-06-2014 22:25:00 15.9 C 8.94 g/m*3 15.9 C 3.2 km/h
471 20-06-2014 22:30:00 15.8 C 8.88 g/m*3 15.8 C 8.1 km/h
472 20-06-2014 22:35:00 15.8 C 8.88 g/m*3 15.8 C 4.8 km/h
473 20-06-2014 22:40:00 15.7 C 8.96 g/m*3 15.7 C 4.8 km/h
474 20-06-2014 22:45:00 15.7 C 8.96 g/m*3 15.7 C 4.8 km/h
475 20-06-2014 22:50:00 15.6 C 8.91 g/m*3 15.6 C 4.8 km/h
Sensor: Nr:Datum:Temp:Abs-Feuchte:Windchill:Wind:
Aussen-T/F 476 20-06-2014 22:55:00 15.6 C 8.91 g/m*3 15.6 C 3.2 km/h
477 20-06-2014 23:00:00 15.5 C 8.99 g/m*3 15.5 C 1.6 km/h
478 20-06-2014 23:05:00 15.4 C 8.93 g/m*3 15.4 C 3.2 km/h
479 20-06-2014 23:10:00 15.4 C 8.93 g/m*3 15.4 C 3.2 km/h
480 20-06-2014 23:15:00 15.4 C 8.93 g/m*3 15.4 C 6.4 km/h
481 20-06-2014 23:20:00 15.4 C 9.07 g/m*3 15.4 C 4.8 km/h
482 20-06-2014 23:25:00 15.4 C 9.07 g/m*3 15.4 C 8.1 km/h
483 20-06-2014 23:30:00 15.3 C 9.14 g/m*3 15.3 C 1.6 km/h
484 20-06-2014 23:35:00 15.3 C 9.27 g/m*3 15.3 C 3.2 km/h
485 20-06-2014 23:40:00 15.2 C 9.22 g/m*3 15.2 C 4.8 km/h
486 20-06-2014 23:45:00 15.1 C 9.29 g/m*3 15.1 C 1.6 km/h
487 20-06-2014 23:50:00 15 C 9.23 g/m*3 15 C 1.6 km/h
488 20-06-2014 23:55:00 14.9 C 9.3 g/m*3 14.9 C 4.8 km/h
489 21-06-2014 00:00:00 14.8 C 9.25 g/m*3 14.8 C 3.2 km/h
490 21-06-2014 00:05:00 14.8 C 9.25 g/m*3 14.8 C 3.2 km/h
491 21-06-2014 00:10:00 14.8 C 9.25 g/m*3 14.8 C 0 km/h
492 21-06-2014 00:15:00 14.8 C 9.25 g/m*3 14.8 C 3.2 km/h
493 21-06-2014 00:20:00 14.8 C 9.37 g/m*3 14.8 C 4.8 km/h
494 21-06-2014 00:25:00 14.8 C 9.37 g/m*3 14.8 C 4.8 km/h
495 21-06-2014 00:30:00 14.7 C 9.32 g/m*3 14.7 C 3.2 km/h
496 21-06-2014 00:35:00 14.7 C 9.44 g/m*3 14.7 C 0 km/h
497 21-06-2014 00:40:00 14.6 C 9.39 g/m*3 14.6 C 0 km/h
498 21-06-2014 00:45:00 14.4 C 9.39 g/m*3 14.4 C 0 km/h
499 21-06-2014 00:50:00 14.3 C 9.34 g/m*3 14.3 C 0 km/h
500 21-06-2014 00:55:00 14.3 C 9.34 g/m*3 14.3 C 0 km/h
Sensor: Nr:Datum:Temp:Abs-Feuchte:Windchill:Wind:
Aussen-T/F 501 21-06-2014 01:00:00 14.2 C 9.4 g/m*3 14.2 C 0 km/h
502 21-06-2014 01:05:00 14.2 C 9.4 g/m*3 14.2 C 0 km/h
503 21-06-2014 01:10:00 14.1 C 9.47 g/m*3 14.1 C 0 km/h
504 21-06-2014 01:15:00 14 C 9.29 g/m*3 14 C 0 km/h
505 21-06-2014 01:20:00 14 C 9.41 g/m*3 14 C 0 km/h
506 21-06-2014 01:25:00 13.9 C 9.35 g/m*3 13.9 C 1.6 km/h
507 21-06-2014 01:30:00 14 C 9.41 g/m*3 14 C 0 km/h
508 21-06-2014 01:35:00 14 C 9.29 g/m*3 14 C 8.1 km/h
509 21-06-2014 01:40:00 14.1 C 9.47 g/m*3 14.1 C 0 km/h
510 21-06-2014 01:45:00 14.1 C 9.34 g/m*3 14.1 C 3.2 km/h
511 21-06-2014 01:50:00 14.1 C 9.34 g/m*3 14.1 C 0 km/h
512 21-06-2014 01:55:00 14.1 C 9.34 g/m*3 14.1 C 0 km/h
513 21-06-2014 02:00:00 14.1 C 9.34 g/m*3 14.1 C 4.8 km/h
514 21-06-2014 02:05:00 14.1 C 9.34 g/m*3 14.1 C 1.6 km/h
515 21-06-2014 02:10:00 14.1 C 9.47 g/m*3 14.1 C 1.6 km/h
516 21-06-2014 02:15:00 14 C 9.41 g/m*3 14 C 3.2 km/h
517 21-06-2014 02:20:00 14 C 9.29 g/m*3 14 C 8.1 km/h
518 21-06-2014 02:25:00 14.1 C 9.34 g/m*3 14.1 C 8.1 km/h
519 21-06-2014 02:30:00 14.1 C 9.34 g/m*3 14.1 C 8.1 km/h
520 21-06-2014 02:35:00 14.1 C 9.34 g/m*3 14.1 C 3.2 km/h
521 21-06-2014 02:40:00 14 C 9.29 g/m*3 14 C 0 km/h
522 21-06-2014 02:45:00 13.9 C 9.23 g/m*3 13.9 C 4.8 km/h
523 21-06-2014 02:50:00 13.8 C 9.41 g/m*3 13.8 C 0 km/h
524 21-06-2014 02:55:00 13.8 C 9.41 g/m*3 13.8 C 0 km/h
525 21-06-2014 03:00:00 13.7 C 9.47 g/m*3 13.7 C 0 km/h
Sensor: Nr:Datum:Temp:Abs-Feuchte:Windchill:Wind:
Aussen-T/F 526 21-06-2014 03:05:00 13.7 C 9.35 g/m*3 13.7 C 0 km/h
527 21-06-2014 03:10:00 13.7 C 9.35 g/m*3 13.7 C 4.8 km/h
528 21-06-2014 03:15:00 13.7 C 9.24 g/m*3 13.7 C 9.7 km/h
529 21-06-2014 03:20:00 13.7 C 9.35 g/m*3 13.7 C 0 km/h
530 21-06-2014 03:25:00 13.7 C 9.35 g/m*3 13.7 C 3.2 km/h
531 21-06-2014 03:30:00 13.7 C 9.35 g/m*3 13.7 C 1.6 km/h
532 21-06-2014 03:35:00 13.7 C 9.35 g/m*3 13.7 C 1.6 km/h
533 21-06-2014 03:40:00 13.7 C 9.24 g/m*3 13.7 C 8.1 km/h
534 21-06-2014 03:45:00 13.8 C 9.29 g/m*3 13.8 C 4.8 km/h
535 21-06-2014 03:50:00 13.8 C 9.29 g/m*3 13.8 C 3.2 km/h
536 21-06-2014 03:55:00 13.8 C 9.29 g/m*3 13.8 C 6.4 km/h
537 21-06-2014 04:00:00 13.9 C 9.35 g/m*3 13.9 C 4.8 km/h
538 21-06-2014 04:05:00 13.9 C 9.35 g/m*3 13.9 C 8.1 km/h
539 21-06-2014 04:10:00 13.9 C 9.35 g/m*3 13.9 C 9.7 km/h
540 21-06-2014 04:15:00 13.9 C 9.47 g/m*3 13.9 C 8.1 km/h
541 21-06-2014 04:20:00 13.8 C 9.41 g/m*3 13.8 C 9.7 km/h
542 21-06-2014 04:25:00 13.7 C 9.35 g/m*3 13.7 C 4.8 km/h
543 21-06-2014 04:30:00 13.6 C 9.42 g/m*3 13.6 C 8.1 km/h
544 21-06-2014 04:35:00 13.4 C 9.3 g/m*3 13.4 C 4.8 km/h
545 21-06-2014 04:40:00 13.3 C 9.36 g/m*3 13.3 C 6.4 km/h
546 21-06-2014 04:45:00 13.2 C 9.42 g/m*3 13.2 C 0 km/h
547 21-06-2014 04:50:00 12.9 C 9.35 g/m*3 12.9 C 1.6 km/h
548 21-06-2014 04:55:00 12.8 C 9.3 g/m*3 12.8 C 1.6 km/h
549 21-06-2014 05:00:00 12.7 C 9.35 g/m*3 12.7 C 0 km/h
550 21-06-2014 05:05:00 12.7 C 9.35 g/m*3 12.7 C 4.8 km/h
Sensor: Nr:Datum:Temp:Abs-Feuchte:Windchill:Wind:
Aussen-T/F 551 21-06-2014 05:10:00 12.7 C 9.35 g/m*3 12.7 C 3.2 km/h
552 21-06-2014 05:15:00 12.7 C 9.35 g/m*3 12.7 C 0 km/h
553 21-06-2014 05:20:00 12.6 C 9.29 g/m*3 12.6 C 0 km/h
554 21-06-2014 05:25:00 12.4 C 9.29 g/m*3 12.4 C 1.6 km/h
555 21-06-2014 05:30:00 12.4 C 9.29 g/m*3 12.4 C 0 km/h
556 21-06-2014 05:35:00 12.4 C 9.29 g/m*3 12.4 C 1.6 km/h
557 21-06-2014 05:40:00 12.4 C 9.29 g/m*3 12.4 C 1.6 km/h
558 21-06-2014 05:45:00 12.4 C 9.29 g/m*3 12.4 C 1.6 km/h
559 21-06-2014 05:50:00 12.4 C 9.29 g/m*3 12.4 C 0 km/h
560 21-06-2014 05:55:00 12.4 C 9.29 g/m*3 12.4 C 1.6 km/h
561 21-06-2014 06:00:00 12.4 C 9.29 g/m*3 12.4 C 8.1 km/h
562 21-06-2014 06:05:00 12.4 C 9.29 g/m*3 12.4 C 8.1 km/h
563 21-06-2014 06:10:00 12.6 C 9.4 g/m*3 12.6 C 9.7 km/h
564 21-06-2014 06:15:00 12.6 C 9.4 g/m*3 12.6 C 8.1 km/h
565 21-06-2014 06:20:00 12.7 C 9.35 g/m*3 12.7 C 6.4 km/h
566 21-06-2014 06:25:00 12.7 C 9.35 g/m*3 12.7 C 3.2 km/h
567 21-06-2014 06:30:00 12.8 C 9.41 g/m*3 12.8 C 0 km/h
568 21-06-2014 06:35:00 12.8 C 9.41 g/m*3 12.8 C 0 km/h
569 21-06-2014 06:40:00 12.8 C 9.41 g/m*3 12.8 C 0 km/h
570 21-06-2014 06:45:00 12.9 C 9.47 g/m*3 12.9 C 0 km/h
571 21-06-2014 06:50:00 12.9 C 9.47 g/m*3 12.9 C 0 km/h
572 21-06-2014 06:55:00 13 C 9.53 g/m*3 13 C 0 km/h
573 21-06-2014 07:00:00 13 C 9.41 g/m*3 13 C 3.2 km/h
574 21-06-2014 07:05:00 13 C 9.41 g/m*3 13 C 3.2 km/h
575 21-06-2014 07:10:00 13.1 C 9.47 g/m*3 13.1 C 0 km/h
Sensor: Nr:Datum:Temp:Abs-Feuchte:Windchill:Wind:
Aussen-T/F 576 21-06-2014 07:15:00 13.1 C 9.47 g/m*3 13.1 C 0 km/h
577 21-06-2014 07:20:00 13.2 C 9.53 g/m*3 13.2 C 3.2 km/h
578 21-06-2014 07:25:00 13.2 C 9.53 g/m*3 13.2 C 4.8 km/h
579 21-06-2014 07:30:00 13.2 C 9.53 g/m*3 13.2 C 1.6 km/h
580 21-06-2014 07:35:00 13.3 C 9.47 g/m*3 13.3 C 1.6 km/h
581 21-06-2014 07:40:00 13.3 C 9.47 g/m*3 13.3 C 3.2 km/h
582 21-06-2014 07:45:00 13.3 C 9.47 g/m*3 13.3 C 1.6 km/h
583 21-06-2014 07:50:00 13.4 C 9.53 g/m*3 13.4 C 0 km/h
584 21-06-2014 07:55:00 13.4 C 9.53 g/m*3 13.4 C 3.2 km/h
585 21-06-2014 08:00:00 13.4 C 9.53 g/m*3 13.4 C 3.2 km/h
586 21-06-2014 08:05:00 13.5 C 9.59 g/m*3 13.5 C 1.6 km/h
587 21-06-2014 08:10:00 13.6 C 9.65 g/m*3 13.6 C 3.2 km/h
588 21-06-2014 08:15:00 13.7 C 9.59 g/m*3 13.7 C 8.1 km/h
589 21-06-2014 08:20:00 13.7 C 9.47 g/m*3 13.7 C 6.4 km/h
590 21-06-2014 08:25:00 13.8 C 9.53 g/m*3 13.8 C 8.1 km/h
591 21-06-2014 08:30:00 13.8 C 9.65 g/m*3 13.8 C 4.8 km/h
592 21-06-2014 08:35:00 13.9 C 9.59 g/m*3 13.9 C 8.1 km/h
593 21-06-2014 08:40:00 14.1 C 9.59 g/m*3 14.1 C 4.8 km/h
594 21-06-2014 08:45:00 14.1 C 9.59 g/m*3 14.1 C 6.4 km/h
595 21-06-2014 08:50:00 14.1 C 9.59 g/m*3 14.1 C 4.8 km/h
596 21-06-2014 08:55:00 14.2 C 9.77 g/m*3 14.2 C 4.8 km/h
597 21-06-2014 09:00:00 14.5 C 9.58 g/m*3 14.5 C 6.4 km/h
598 21-06-2014 09:05:00 14.4 C 9.52 g/m*3 14.4 C 6.4 km/h
599 21-06-2014 09:10:00 14.4 C 9.52 g/m*3 14.4 C 8.1 km/h
600 21-06-2014 09:15:00 14.4 C 9.39 g/m*3 14.4 C 9.7 km/h
Sensor: Nr:Datum:Temp:Abs-Feuchte:Windchill:Wind:
Aussen-T/F 601 21-06-2014 09:20:00 14.4 C 9.27 g/m*3 14.4 C 4.8 km/h
602 21-06-2014 09:25:00 14.6 C 9.51 g/m*3 14.6 C 4.8 km/h
603 21-06-2014 09:30:00 14.8 C 9.75 g/m*3 14.8 C 4.8 km/h
604 21-06-2014 09:35:00 14.9 C 9.69 g/m*3 14.9 C 8.1 km/h
605 21-06-2014 09:40:00 15 C 9.36 g/m*3 15 C 11.3 km/h
606 21-06-2014 09:45:00 15 C 9.23 g/m*3 15 C 9.7 km/h
607 21-06-2014 09:50:00 14.9 C 9.18 g/m*3 14.9 C 11.3 km/h
608 21-06-2014 09:55:00 15 C 9.36 g/m*3 15 C 6.4 km/h
609 21-06-2014 10:00:00 15.2 C 9.35 g/m*3 15.2 C 4.8 km/h
610 21-06-2014 10:05:00 15.5 C 9.52 g/m*3 15.5 C 9.7 km/h
611 21-06-2014 10:10:00 15.8 C 9.69 g/m*3 15.8 C 8.1 km/h
612 21-06-2014 10:15:00 16.1 C 9.18 g/m*3 16.1 C 11.3 km/h
613 21-06-2014 10:20:00 16.3 C 9.43 g/m*3 16.3 C 6.4 km/h
614 21-06-2014 10:25:00 16.3 C 9.43 g/m*3 16.3 C 9.7 km/h
615 21-06-2014 10:30:00 16.1 C 9.46 g/m*3 16.1 C 6.4 km/h
616 21-06-2014 10:35:00 15.9 C 9.34 g/m*3 15.9 C 6.4 km/h
617 21-06-2014 10:40:00 15.8 C 9.42 g/m*3 15.8 C 6.4 km/h
618 21-06-2014 10:45:00 15.8 C 9.42 g/m*3 15.8 C 4.8 km/h
619 21-06-2014 10:50:00 15.8 C 9.29 g/m*3 15.8 C 6.4 km/h
620 21-06-2014 10:55:00 15.8 C 9.15 g/m*3 15.8 C 6.4 km/h
621 21-06-2014 11:00:00 16.2 C 9.65 g/m*3 16.2 C 6.4 km/h
622 21-06-2014 11:05:00 16.8 C 9.58 g/m*3 16.8 C 9.7 km/h
623 21-06-2014 11:10:00 17.2 C 9.52 g/m*3 17.2 C 12.9 km/h
624 21-06-2014 11:15:00 17.4 C 9.04 g/m*3 17.4 C 12.9 km/h
625 21-06-2014 11:20:00 17.4 C 8.89 g/m*3 17.4 C 8.1 km/h
Sensor: Nr:Datum:Temp:Abs-Feuchte:Windchill:Wind:
Aussen-T/F 626 21-06-2014 11:25:00 17.3 C 8.69 g/m*3 17.3 C 9.7 km/h
627 21-06-2014 11:30:00 17.2 C 8.93 g/m*3 17.2 C 11.3 km/h
628 21-06-2014 11:35:00 17.1 C 9.03 g/m*3 17.1 C 8.1 km/h
629 21-06-2014 11:40:00 17 C 8.83 g/m*3 17 C 6.4 km/h
630 21-06-2014 11:45:00 16.8 C 8.86 g/m*3 16.8 C 9.7 km/h
631 21-06-2014 11:50:00 17 C 8.97 g/m*3 17 C 9.7 km/h
632 21-06-2014 11:55:00 17.1 C 8.88 g/m*3 17.1 C 11.3 km/h
633 21-06-2014 12:00:00 17.1 C 9.03 g/m*3 17.1 C 9.7 km/h
634 21-06-2014 12:05:00 17.1 C 8.73 g/m*3 17.1 C 11.3 km/h
635 21-06-2014 12:10:00 17.1 C 9.03 g/m*3 17.1 C 8.1 km/h
636 21-06-2014 12:15:00 17.3 C 8.99 g/m*3 17.3 C 8.1 km/h
637 21-06-2014 12:20:00 17.6 C 8.85 g/m*3 17.6 C 9.7 km/h
638 21-06-2014 12:25:00 17.8 C 8.65 g/m*3 17.8 C 9.7 km/h
639 21-06-2014 12:30:00 17.9 C 8.4 g/m*3 17.9 C 9.7 km/h
640 21-06-2014 12:35:00 17.9 C 8.7 g/m*3 17.9 C 11.3 km/h
641 21-06-2014 12:40:00 18.2 C 8.7 g/m*3 18.2 C 12.9 km/h
642 21-06-2014 12:45:00 18.4 C 8.49 g/m*3 18.4 C 9.7 km/h
643 21-06-2014 12:50:00 18.4 C 8.34 g/m*3 18.4 C 8.1 km/h
644 21-06-2014 12:55:00 18.3 C 8.6 g/m*3 18.3 C 12.9 km/h
645 21-06-2014 13:00:00 18.6 C 8.59 g/m*3 18.6 C 8.1 km/h
646 21-06-2014 13:05:00 19.1 C 9.18 g/m*3 19.1 C 4.8 km/h
647 21-06-2014 13:10:00 19.5 C 8.56 g/m*3 19.5 C 11.3 km/h
648 21-06-2014 13:15:00 19.4 C 9.01 g/m*3 19.4 C 11.3 km/h
649 21-06-2014 13:20:00 19.6 C 9.28 g/m*3 19.6 C 9.7 km/h
650 21-06-2014 13:25:00 19.7 C 8.83 g/m*3 19.7 C 11.3 km/h
Sensor: Nr:Datum:Temp:Abs-Feuchte:Windchill:Wind:
Aussen-T/F 651 21-06-2014 13:30:00 19 C 8.47 g/m*3 19 C 11.3 km/h
652 21-06-2014 13:35:00 18.7 C 8.49 g/m*3 18.7 C 11.3 km/h
653 21-06-2014 13:40:00 18.8 C 8.54 g/m*3 18.8 C 11.3 km/h
654 21-06-2014 13:45:00 19.2 C 8.74 g/m*3 19.2 C 11.3 km/h
655 21-06-2014 13:50:00 19.7 C 8.66 g/m*3 19.7 C 8.1 km/h
656 21-06-2014 13:55:00 19.7 C 8.66 g/m*3 19.7 C 11.3 km/h
657 21-06-2014 14:00:00 19.2 C 8.41 g/m*3 19.2 C 14.5 km/h
658 21-06-2014 14:05:00 19.3 C 8.46 g/m*3 19.3 C 9.7 km/h
659 21-06-2014 14:10:00 19.3 C 8.13 g/m*3 19.3 C 11.3 km/h
660 21-06-2014 14:15:00 19.7 C 8.49 g/m*3 19.7 C 12.9 km/h
661 21-06-2014 14:20:00 19.7 C 8.83 g/m*3 19.7 C 9.7 km/h
662 21-06-2014 14:25:00 20.1 C 8.52 g/m*3 20.1 C 9.7 km/h
663 21-06-2014 14:30:00 20.4 C 9.02 g/m*3 20.4 C 11.3 km/h
664 21-06-2014 14:35:00 20.7 C 8.82 g/m*3 20.7 C 14.5 km/h
665 21-06-2014 14:40:00 20.7 C 8.46 g/m*3 20.7 C 9.7 km/h
666 21-06-2014 14:45:00 20.6 C 8.59 g/m*3 20.6 C 11.3 km/h
667 21-06-2014 14:50:00 20.3 C 8.27 g/m*3 20.3 C 6.4 km/h
668 21-06-2014 14:55:00 20.3 C 8.62 g/m*3 20.3 C 8.1 km/h
669 21-06-2014 15:00:00 20.7 C 8.82 g/m*3 20.7 C 11.3 km/h
670 21-06-2014 15:05:00 20.8 C 8.51 g/m*3 20.8 C 9.7 km/h
671 21-06-2014 15:10:00 20.6 C 8.41 g/m*3 20.6 C 14.5 km/h
672 21-06-2014 15:15:00 20.5 C 8.72 g/m*3 20.5 C 9.7 km/h
673 21-06-2014 15:20:00 20.6 C 8.95 g/m*3 20.6 C 6.4 km/h
674 21-06-2014 15:25:00 20.6 C 8.95 g/m*3 20.6 C 9.7 km/h
675 21-06-2014 15:30:00 20.8 C 9.05 g/m*3 20.8 C 11.3 km/h
Sensor: Nr:Datum:Temp:Abs-Feuchte:Windchill:Wind:
Aussen-T/F 676 21-06-2014 15:35:00 20.9 C 8.56 g/m*3 20.9 C 14.5 km/h
677 21-06-2014 15:40:00 21.1 C 8.66 g/m*3 21.1 C 8.1 km/h
678 21-06-2014 15:45:00 20.9 C 8.38 g/m*3 20.9 C 8.1 km/h
679 21-06-2014 15:50:00 20.8 C 8.69 g/m*3 20.8 C 8.1 km/h
680 21-06-2014 15:55:00 21.3 C 8.57 g/m*3 21.3 C 9.7 km/h
681 21-06-2014 16:00:00 21.6 C 9.1 g/m*3 21.6 C 8.1 km/h
682 21-06-2014 16:05:00 21.7 C 8.39 g/m*3 21.7 C 9.7 km/h
683 21-06-2014 16:10:00 21.7 C 8.77 g/m*3 21.7 C 6.4 km/h
684 21-06-2014 16:15:00 21.7 C 8.58 g/m*3 21.7 C 9.7 km/h
685 21-06-2014 16:20:00 21.3 C 8.76 g/m*3 21.3 C 8.1 km/h
686 21-06-2014 16:25:00 21.4 C 8.44 g/m*3 21.4 C 12.9 km/h
687 21-06-2014 16:30:00 21.6 C 8.91 g/m*3 21.6 C 12.9 km/h
688 21-06-2014 16:35:00 21.3 C 8.57 g/m*3 21.3 C 11.3 km/h
689 21-06-2014 16:40:00 21.1 C 8.84 g/m*3 21.1 C 11.3 km/h
690 21-06-2014 16:45:00 21.3 C 8.76 g/m*3 21.3 C 8.1 km/h
691 21-06-2014 16:50:00 21.3 C 8.57 g/m*3 21.3 C 11.3 km/h
692 21-06-2014 16:55:00 21.2 C 9.08 g/m*3 21.2 C 8.1 km/h
693 21-06-2014 17:00:00 21.4 C 8.62 g/m*3 21.4 C 8.1 km/h
694 21-06-2014 17:05:00 21.6 C 9.1 g/m*3 21.6 C 8.1 km/h
695 21-06-2014 17:10:00 21.9 C 8.68 g/m*3 21.9 C 11.3 km/h
696 21-06-2014 17:15:00 21.8 C 8.44 g/m*3 21.8 C 8.1 km/h
697 21-06-2014 17:20:00 21.4 C 8.25 g/m*3 21.4 C 8.1 km/h
698 21-06-2014 17:25:00 20.8 C 8.15 g/m*3 20.8 C 8.1 km/h
699 21-06-2014 17:30:00 20.4 C 8.31 g/m*3 20.4 C 8.1 km/h
700 21-06-2014 17:35:00 20.8 C 8.51 g/m*3 20.8 C 8.1 km/h
Sensor: Nr:Datum:Temp:Abs-Feuchte:Windchill:Wind:
Aussen-T/F 701 21-06-2014 17:40:00 21.3 C 8.39 g/m*3 21.3 C 4.8 km/h
702 21-06-2014 17:45:00 21.4 C 8.44 g/m*3 21.4 C 4.8 km/h
703 21-06-2014 17:50:00 21.7 C 8.58 g/m*3 21.7 C 6.4 km/h
704 21-06-2014 17:55:00 21.9 C 8.3 g/m*3 21.9 C 6.4 km/h
705 21-06-2014 18:00:00 22.1 C 8.39 g/m*3 22.1 C 8.1 km/h
706 21-06-2014 18:05:00 22.1 C 8.59 g/m*3 22.1 C 6.4 km/h
707 21-06-2014 18:10:00 22.2 C 8.64 g/m*3 22.2 C 9.7 km/h
708 21-06-2014 18:15:00 22.3 C 8.29 g/m*3 22.3 C 9.7 km/h
709 21-06-2014 18:20:00 22.2 C 8.25 g/m*3 22.2 C 6.4 km/h
710 21-06-2014 18:25:00 21.6 C 8.16 g/m*3 21.6 C 8.1 km/h
711 21-06-2014 18:30:00 21.2 C 8.15 g/m*3 21.2 C 8.1 km/h
712 21-06-2014 18:35:00 20.8 C 8.15 g/m*3 20.8 C 8.1 km/h
713 21-06-2014 18:40:00 20.4 C 8.14 g/m*3 20.4 C 4.8 km/h
714 21-06-2014 18:45:00 20.3 C 8.44 g/m*3 20.3 C 3.2 km/h
715 21-06-2014 18:50:00 20.5 C 8.36 g/m*3 20.5 C 4.8 km/h
716 21-06-2014 18:55:00 21 C 8.43 g/m*3 21 C 6.4 km/h
717 21-06-2014 19:00:00 21.4 C 8.44 g/m*3 21.4 C 3.2 km/h
718 21-06-2014 19:05:00 21.8 C 8.44 g/m*3 21.8 C 9.7 km/h
719 21-06-2014 19:10:00 22.1 C 8.2 g/m*3 22.1 C 9.7 km/h
720 21-06-2014 19:15:00 22 C 8.15 g/m*3 22 C 8.1 km/h
721 21-06-2014 19:20:00 21.8 C 8.06 g/m*3 21.8 C 6.4 km/h
722 21-06-2014 19:25:00 21.6 C 8.35 g/m*3 21.6 C 9.7 km/h
723 21-06-2014 19:30:00 21.3 C 8.02 g/m*3 21.3 C 9.7 km/h
724 21-06-2014 19:35:00 21 C 8.43 g/m*3 21 C 8.1 km/h
725 21-06-2014 19:40:00 20.8 C 8.15 g/m*3 20.8 C 4.8 km/h
Sensor: Nr:Datum:Temp:Abs-Feuchte:Windchill:Wind:
Aussen-T/F 726 21-06-2014 19:45:00 20.6 C 8.23 g/m*3 20.6 C 6.4 km/h
727 21-06-2014 19:50:00 20.4 C 8.49 g/m*3 20.4 C 4.8 km/h
728 21-06-2014 19:55:00 20.4 C 8.31 g/m*3 20.4 C 3.2 km/h
729 21-06-2014 20:00:00 20.3 C 8.09 g/m*3 20.3 C 3.2 km/h
730 21-06-2014 20:05:00 20.3 C 8.44 g/m*3 20.3 C 4.8 km/h
731 21-06-2014 20:10:00 20.3 C 8.44 g/m*3 20.3 C 3.2 km/h
732 21-06-2014 20:15:00 20.3 C 8.62 g/m*3 20.3 C 3.2 km/h
733 21-06-2014 20:20:00 20.3 C 8.62 g/m*3 20.3 C 4.8 km/h
734 21-06-2014 20:25:00 20.2 C 8.57 g/m*3 20.2 C 4.8 km/h
735 21-06-2014 20:30:00 20.1 C 8.52 g/m*3 20.1 C 4.8 km/h
736 21-06-2014 20:35:00 19.9 C 8.59 g/m*3 19.9 C 6.4 km/h
737 21-06-2014 20:40:00 19.8 C 8.54 g/m*3 19.8 C 4.8 km/h
738 21-06-2014 20:45:00 19.8 C 8.37 g/m*3 19.8 C 4.8 km/h
739 21-06-2014 20:50:00 19.7 C 8.32 g/m*3 19.7 C 1.6 km/h
740 21-06-2014 20:55:00 19.6 C 8.61 g/m*3 19.6 C 3.2 km/h
741 21-06-2014 21:00:00 19.5 C 9.06 g/m*3 19.5 C 0 km/h
742 21-06-2014 21:05:00 19.2 C 9.07 g/m*3 19.2 C 0 km/h
743 21-06-2014 21:10:00 18.6 C 9.23 g/m*3 18.6 C 0 km/h
744 21-06-2014 21:15:00 18 C 9.52 g/m*3 18 C 1.6 km/h
745 21-06-2014 21:20:00 17.4 C 9.48 g/m*3 17.4 C 0 km/h
746 21-06-2014 21:25:00 17.1 C 9.46 g/m*3 17.1 C 0 km/h
747 21-06-2014 21:30:00 16.7 C 9.52 g/m*3 16.7 C 1.6 km/h
748 21-06-2014 21:35:00 16.3 C 9.3 g/m*3 16.3 C 1.6 km/h
749 21-06-2014 21:40:00 16.1 C 9.32 g/m*3 16.1 C 1.6 km/h
750 21-06-2014 21:45:00 15.9 C 9.07 g/m*3 15.9 C 1.6 km/h
Sensor: Nr:Datum:Temp:Abs-Feuchte:Windchill:Wind:
Aussen-T/F 751 21-06-2014 21:50:00 15.8 C 9.02 g/m*3 15.8 C 1.6 km/h
752 21-06-2014 21:55:00 15.6 C 8.91 g/m*3 15.6 C 1.6 km/h
753 21-06-2014 22:00:00 15.5 C 8.99 g/m*3 15.5 C 1.6 km/h
754 21-06-2014 22:05:00 15.4 C 9.07 g/m*3 15.4 C 0 km/h
755 21-06-2014 22:10:00 15.3 C 9.01 g/m*3 15.3 C 0 km/h
756 21-06-2014 22:15:00 15.2 C 8.96 g/m*3 15.2 C 1.6 km/h
757 21-06-2014 22:20:00 15.1 C 9.03 g/m*3 15.1 C 0 km/h
758 21-06-2014 22:25:00 15.1 C 9.03 g/m*3 15.1 C 1.6 km/h
759 21-06-2014 22:30:00 15 C 8.85 g/m*3 15 C 0 km/h
760 21-06-2014 22:35:00 14.9 C 8.92 g/m*3 14.9 C 0 km/h
761 21-06-2014 22:40:00 14.8 C 8.99 g/m*3 14.8 C 0 km/h
762 21-06-2014 22:45:00 14.7 C 9.07 g/m*3 14.7 C 0 km/h
763 21-06-2014 22:50:00 14.6 C 8.88 g/m*3 14.6 C 0 km/h
764 21-06-2014 22:55:00 14.5 C 8.95 g/m*3 14.5 C 0 km/h
765 21-06-2014 23:00:00 14.4 C 8.9 g/m*3 14.4 C 0 km/h
766 21-06-2014 23:05:00 14.4 C 9.15 g/m*3 14.4 C 0 km/h
767 21-06-2014 23:10:00 13.9 C 8.87 g/m*3 13.9 C 0 km/h
768 21-06-2014 23:15:00 13.8 C 8.94 g/m*3 13.8 C 0 km/h
769 21-06-2014 23:20:00 13.7 C 8.88 g/m*3 13.7 C 0 km/h
770 21-06-2014 23:25:00 13.6 C 8.94 g/m*3 13.6 C 0 km/h
771 21-06-2014 23:30:00 13.4 C 8.83 g/m*3 13.4 C 0 km/h
772 21-06-2014 23:35:00 13.2 C 8.84 g/m*3 13.2 C 0 km/h
773 21-06-2014 23:40:00 13.2 C 8.96 g/m*3 13.2 C 0 km/h
774 21-06-2014 23:45:00 13.1 C 8.9 g/m*3 13.1 C 0 km/h
775 21-06-2014 23:50:00 12.9 C 8.9 g/m*3 12.9 C 0 km/h
Sensor: Nr:Datum:Temp:Abs-Feuchte:Windchill:Wind:
Aussen-T/F 776 21-06-2014 23:55:00 12.8 C 8.85 g/m*3 12.8 C 0 km/h
777 22-06-2014 00:00:00 12.7 C 8.79 g/m*3 12.7 C 0 km/h
778 22-06-2014 00:05:00 12.7 C 8.91 g/m*3 12.7 C 0 km/h
779 22-06-2014 00:10:00 12.6 C 8.85 g/m*3 12.6 C 0 km/h
780 22-06-2014 00:15:00 12.6 C 8.85 g/m*3 12.6 C 0 km/h
781 22-06-2014 00:20:00 12.5 C 8.8 g/m*3 12.5 C 0 km/h
782 22-06-2014 00:25:00 12.4 C 8.85 g/m*3 12.4 C 0 km/h
783 22-06-2014 00:30:00 12.4 C 8.85 g/m*3 12.4 C 0 km/h
784 22-06-2014 00:35:00 12.3 C 8.8 g/m*3 12.3 C 0 km/h
785 22-06-2014 00:40:00 12.3 C 8.8 g/m*3 12.3 C 1.6 km/h
786 22-06-2014 00:45:00 12.2 C 8.74 g/m*3 12.2 C 1.6 km/h
787 22-06-2014 00:50:00 12.1 C 8.79 g/m*3 12.1 C 0 km/h
788 22-06-2014 00:55:00 12.1 C 8.79 g/m*3 12.1 C 1.6 km/h
789 22-06-2014 01:00:00 12 C 8.74 g/m*3 12 C 0 km/h
790 22-06-2014 01:05:00 11.9 C 8.79 g/m*3 11.9 C 1.6 km/h
791 22-06-2014 01:10:00 11.8 C 8.63 g/m*3 11.8 C 0 km/h
792 22-06-2014 01:15:00 11.8 C 8.74 g/m*3 11.8 C 0 km/h
793 22-06-2014 01:20:00 11.7 C 8.68 g/m*3 11.7 C 0 km/h
794 22-06-2014 01:25:00 11.7 C 8.79 g/m*3 11.7 C 0 km/h
795 22-06-2014 01:30:00 11.6 C 8.63 g/m*3 11.6 C 0 km/h
796 22-06-2014 01:35:00 11.5 C 8.68 g/m*3 11.5 C 1.6 km/h
797 22-06-2014 01:40:00 11.4 C 8.62 g/m*3 11.4 C 0 km/h
798 22-06-2014 01:45:00 11.3 C 8.57 g/m*3 11.3 C 0 km/h
799 22-06-2014 01:50:00 11.2 C 8.62 g/m*3 11.2 C 3.2 km/h
800 22-06-2014 01:55:00 11.2 C 8.62 g/m*3 11.2 C 4.8 km/h
Sensor: Nr:Datum:Temp:Abs-Feuchte:Windchill:Wind:
Aussen-T/F 801 22-06-2014 02:00:00 11.1 C 8.56 g/m*3 11.1 C 3.2 km/h
802 22-06-2014 02:05:00 11.1 C 8.56 g/m*3 11.1 C 0 km/h
803 22-06-2014 02:10:00 10.9 C 8.55 g/m*3 10.9 C 0 km/h
804 22-06-2014 02:15:00 10.9 C 8.55 g/m*3 10.9 C 0 km/h
805 22-06-2014 02:20:00 10.8 C 8.5 g/m*3 10.8 C 0 km/h
806 22-06-2014 02:25:00 10.8 C 8.5 g/m*3 10.8 C 0 km/h
807 22-06-2014 02:30:00 10.8 C 8.6 g/m*3 10.8 C 0 km/h
808 22-06-2014 02:35:00 10.7 C 8.55 g/m*3 10.7 C 0 km/h
809 22-06-2014 02:40:00 10.6 C 8.49 g/m*3 10.6 C 0 km/h
810 22-06-2014 02:45:00 10.6 C 8.49 g/m*3 10.6 C 0 km/h
811 22-06-2014 02:50:00 10.5 C 8.44 g/m*3 10.5 C 0 km/h
812 22-06-2014 02:55:00 10.4 C 8.38 g/m*3 10.4 C 0 km/h
813 22-06-2014 03:00:00 10.4 C 8.38 g/m*3 10.4 C 0 km/h
814 22-06-2014 03:05:00 10.3 C 8.43 g/m*3 10.3 C 0 km/h
815 22-06-2014 03:10:00 10.2 C 8.37 g/m*3 10.2 C 0 km/h
816 22-06-2014 03:15:00 10.2 C 8.37 g/m*3 10.2 C 0 km/h
817 22-06-2014 03:20:00 10.2 C 8.37 g/m*3 10.2 C 0 km/h
818 22-06-2014 03:25:00 10.1 C 8.42 g/m*3 10.1 C 0 km/h
819 22-06-2014 03:30:00 10.1 C 8.42 g/m*3 10.1 C 0 km/h
820 22-06-2014 03:35:00 10 C 8.36 g/m*3 10 C 0 km/h
821 22-06-2014 03:40:00 9.9 C 8.31 g/m*3 9.9 C 0 km/h
822 22-06-2014 03:45:00 9.9 C 8.31 g/m*3 9.9 C 0 km/h
823 22-06-2014 03:50:00 9.9 C 8.31 g/m*3 9.9 C 0 km/h
824 22-06-2014 03:55:00 9.8 C 8.26 g/m*3 9.8 C 0 km/h
825 22-06-2014 04:00:00 9.8 C 8.35 g/m*3 9.8 C 0 km/h
Sensor: Nr:Datum:Temp:Abs-Feuchte:Windchill:Wind:
Aussen-T/F 826 22-06-2014 04:05:00 9.8 C 8.35 g/m*3 9.8 C 0 km/h
827 22-06-2014 04:10:00 9.7 C 8.3 g/m*3 9.7 C 0 km/h
828 22-06-2014 04:15:00 9.7 C 8.3 g/m*3 9.7 C 0 km/h
829 22-06-2014 04:20:00 9.7 C 8.3 g/m*3 9.7 C 0 km/h
830 22-06-2014 04:25:00 9.6 C 8.24 g/m*3 9.6 C 0 km/h
831 22-06-2014 04:30:00 9.6 C 8.24 g/m*3 9.6 C 0 km/h
832 22-06-2014 04:35:00 9.4 C 8.14 g/m*3 9.4 C 0 km/h
833 22-06-2014 04:40:00 9.4 C 8.23 g/m*3 9.4 C 0 km/h
834 22-06-2014 04:45:00 9.5 C 8.28 g/m*3 9.5 C 1.6 km/h
835 22-06-2014 04:50:00 9.6 C 8.34 g/m*3 9.6 C 3.2 km/h
836 22-06-2014 04:55:00 9.6 C 8.34 g/m*3 9.6 C 1.6 km/h
837 22-06-2014 05:00:00 9.7 C 8.39 g/m*3 9.7 C 0 km/h
838 22-06-2014 05:05:00 9.7 C 8.39 g/m*3 9.7 C 1.6 km/h
839 22-06-2014 05:10:00 9.7 C 8.39 g/m*3 9.7 C 0 km/h
840 22-06-2014 05:15:00 9.8 C 8.44 g/m*3 9.8 C 1.6 km/h
841 22-06-2014 05:20:00 9.9 C 8.5 g/m*3 9.9 C 3.2 km/h
842 22-06-2014 05:25:00 10 C 8.46 g/m*3 10 C 0 km/h
843 22-06-2014 05:30:00 10.1 C 8.51 g/m*3 10.1 C 0 km/h
844 22-06-2014 05:35:00 10.1 C 8.51 g/m*3 10.1 C 0 km/h
845 22-06-2014 05:40:00 10 C 8.36 g/m*3 10 C 0 km/h
846 22-06-2014 05:45:00 10 C 8.36 g/m*3 10 C 0 km/h
847 22-06-2014 05:50:00 10 C 8.36 g/m*3 10 C 0 km/h
848 22-06-2014 05:55:00 10 C 8.46 g/m*3 10 C 0 km/h
849 22-06-2014 06:00:00 10 C 8.46 g/m*3 10 C 3.2 km/h
850 22-06-2014 06:05:00 10 C 8.36 g/m*3 9.37 C 6.4 km/h
Sensor: Nr:Datum:Temp:Abs-Feuchte:Windchill:Wind:
Aussen-T/F 851 22-06-2014 06:10:00 10.1 C 8.42 g/m*3 10.1 C 1.6 km/h
852 22-06-2014 06:15:00 10.1 C 8.42 g/m*3 10.1 C 1.6 km/h
853 22-06-2014 06:20:00 10.1 C 8.42 g/m*3 10.1 C 0 km/h
854 22-06-2014 06:25:00 10.1 C 8.51 g/m*3 10.1 C 3.2 km/h
855 22-06-2014 06:30:00 10.1 C 8.51 g/m*3 10.1 C 0 km/h
856 22-06-2014 06:35:00 10.1 C 8.51 g/m*3 10.1 C 1.6 km/h
857 22-06-2014 06:40:00 10.2 C 8.56 g/m*3 10.2 C 4.8 km/h
858 22-06-2014 06:45:00 10.2 C 8.56 g/m*3 10.2 C 1.6 km/h
859 22-06-2014 06:50:00 10.3 C 8.52 g/m*3 10.3 C 3.2 km/h
860 22-06-2014 06:55:00 10.4 C 8.58 g/m*3 10.4 C 3.2 km/h
861 22-06-2014 07:00:00 10.4 C 8.58 g/m*3 10.4 C 3.2 km/h
862 22-06-2014 07:05:00 10.5 C 8.53 g/m*3 9.95 C 6.4 km/h
863 22-06-2014 07:10:00 10.6 C 8.59 g/m*3 10.6 C 4.8 km/h
864 22-06-2014 07:15:00 10.6 C 8.49 g/m*3 10.6 C 3.2 km/h
865 22-06-2014 07:20:00 10.7 C 8.55 g/m*3 10.7 C 4.8 km/h
866 22-06-2014 07:25:00 10.8 C 8.6 g/m*3 10.29 C 6.4 km/h
867 22-06-2014 07:30:00 11 C 8.71 g/m*3 11 C 0 km/h
868 22-06-2014 07:35:00 11.1 C 8.76 g/m*3 11.1 C 0 km/h
869 22-06-2014 07:40:00 11.3 C 8.77 g/m*3 11.3 C 1.6 km/h
870 22-06-2014 07:45:00 11.6 C 8.83 g/m*3 11.6 C 4.8 km/h
871 22-06-2014 07:50:00 11.7 C 8.79 g/m*3 11.7 C 3.2 km/h
872 22-06-2014 07:55:00 11.9 C 8.9 g/m*3 11.9 C 6.4 km/h
873 22-06-2014 08:00:00 12 C 8.95 g/m*3 12 C 4.8 km/h
874 22-06-2014 08:05:00 12.2 C 9.06 g/m*3 12.2 C 3.2 km/h
875 22-06-2014 08:10:00 12.3 C 9.01 g/m*3 12.3 C 6.4 km/h
Sensor: Nr:Datum:Temp:Abs-Feuchte:Windchill:Wind:
Aussen-T/F 876 22-06-2014 08:15:00 12.4 C 9.07 g/m*3 12.4 C 3.2 km/h
877 22-06-2014 08:20:00 12.6 C 9.18 g/m*3 12.6 C 3.2 km/h
878 22-06-2014 08:25:00 12.7 C 9.24 g/m*3 12.7 C 0 km/h
879 22-06-2014 08:30:00 12.8 C 9.3 g/m*3 12.8 C 3.2 km/h
880 22-06-2014 08:35:00 12.9 C 9.35 g/m*3 12.9 C 1.6 km/h
881 22-06-2014 08:40:00 13.2 C 9.53 g/m*3 13.2 C 1.6 km/h
882 22-06-2014 08:45:00 13.6 C 9.77 g/m*3 13.6 C 0 km/h
883 22-06-2014 08:50:00 14 C 9.89 g/m*3 14 C 0 km/h
884 22-06-2014 08:55:00 14.4 C 10.14 g/m*3 14.4 C 0 km/h
885 22-06-2014 09:00:00 14.9 C 10.2 g/m*3 14.9 C 0 km/h
886 22-06-2014 09:05:00 15.3 C 10.32 g/m*3 15.3 C 1.6 km/h
887 22-06-2014 09:10:00 15.8 C 10.77 g/m*3 15.8 C 1.6 km/h
888 22-06-2014 09:15:00 16.3 C 10.68 g/m*3 16.3 C 3.2 km/h
889 22-06-2014 09:20:00 16.6 C 10.74 g/m*3 16.6 C 4.8 km/h
890 22-06-2014 09:25:00 16.6 C 10.74 g/m*3 16.6 C 4.8 km/h
891 22-06-2014 09:30:00 16.7 C 10.94 g/m*3 16.7 C 11.3 km/h
892 22-06-2014 09:35:00 16.8 C 10.87 g/m*3 16.8 C 6.4 km/h
893 22-06-2014 09:40:00 17 C 10.85 g/m*3 17 C 12.9 km/h
894 22-06-2014 09:45:00 17.1 C 11.21 g/m*3 17.1 C 4.8 km/h
895 22-06-2014 09:50:00 17.2 C 11.13 g/m*3 17.2 C 4.8 km/h
896 22-06-2014 09:55:00 17.4 C 11.12 g/m*3 17.4 C 6.4 km/h
897 22-06-2014 10:00:00 17.7 C 11.32 g/m*3 17.7 C 4.8 km/h
898 22-06-2014 10:05:00 17.7 C 11.01 g/m*3 17.7 C 11.3 km/h
899 22-06-2014 10:10:00 17.8 C 11.08 g/m*3 17.8 C 9.7 km/h
900 22-06-2014 10:15:00 17.9 C 10.84 g/m*3 17.9 C 8.1 km/h
Sensor: Nr:Datum:Temp:Abs-Feuchte:Windchill:Wind:
Aussen-T/F 901 22-06-2014 10:20:00 17.9 C 10.99 g/m*3 17.9 C 9.7 km/h
902 22-06-2014 10:25:00 17.9 C 10.99 g/m*3 17.9 C 9.7 km/h
903 22-06-2014 10:30:00 17.8 C 10.78 g/m*3 17.8 C 4.8 km/h
904 22-06-2014 10:35:00 17.8 C 11.23 g/m*3 17.8 C 3.2 km/h
905 22-06-2014 10:40:00 18.3 C 11.1 g/m*3 18.3 C 6.4 km/h
906 22-06-2014 10:45:00 18.6 C 10.98 g/m*3 18.6 C 8.1 km/h
907 22-06-2014 10:50:00 18.8 C 10.63 g/m*3 18.8 C 6.4 km/h
908 22-06-2014 10:55:00 19.1 C 10.66 g/m*3 19.1 C 4.8 km/h
909 22-06-2014 11:00:00 19.4 C 10.18 g/m*3 19.4 C 12.9 km/h
910 22-06-2014 11:05:00 19.8 C 10.25 g/m*3 19.8 C 8.1 km/h
911 22-06-2014 11:10:00 19.7 C 10.19 g/m*3 19.7 C 12.9 km/h
912 22-06-2014 11:15:00 19.6 C 10.47 g/m*3 19.6 C 8.1 km/h
913 22-06-2014 11:20:00 19.6 C 9.79 g/m*3 19.6 C 9.7 km/h
914 22-06-2014 11:25:00 19.9 C 10.48 g/m*3 19.9 C 6.4 km/h
915 22-06-2014 11:30:00 19.9 C 10.14 g/m*3 19.9 C 9.7 km/h
916 22-06-2014 11:35:00 19.8 C 10.59 g/m*3 19.8 C 11.3 km/h
917 22-06-2014 11:40:00 19.5 C 10.57 g/m*3 19.5 C 11.3 km/h
918 22-06-2014 11:45:00 19.2 C 10.39 g/m*3 19.2 C 11.3 km/h
919 22-06-2014 11:50:00 19.1 C 10.33 g/m*3 19.1 C 11.3 km/h
920 22-06-2014 11:55:00 19.3 C 10.12 g/m*3 19.3 C 11.3 km/h
921 22-06-2014 12:00:00 19.8 C 10.42 g/m*3 19.8 C 12.9 km/h
922 22-06-2014 12:05:00 20.3 C 10.38 g/m*3 20.3 C 11.3 km/h
923 22-06-2014 12:10:00 20.6 C 10.38 g/m*3 20.6 C 14.5 km/h
924 22-06-2014 12:15:00 20.4 C 10.08 g/m*3 20.4 C 14.5 km/h
925 22-06-2014 12:20:00 20.2 C 10.14 g/m*3 20.2 C 12.9 km/h
Sensor: Nr:Datum:Temp:Abs-Feuchte:Windchill:Wind:
Aussen-T/F 926 22-06-2014 12:25:00 20.3 C 9.85 g/m*3 20.3 C 8.1 km/h
927 22-06-2014 12:30:00 20.4 C 10.26 g/m*3 20.4 C 4.8 km/h
928 22-06-2014 12:35:00 20.7 C 9.72 g/m*3 20.7 C 8.1 km/h
929 22-06-2014 12:40:00 20.9 C 9.11 g/m*3 20.9 C 19.3 km/h
930 22-06-2014 12:45:00 21.2 C 9.45 g/m*3 21.2 C 19.3 km/h
931 22-06-2014 12:50:00 21.5 C 9.43 g/m*3 21.5 C 8.1 km/h
932 22-06-2014 12:55:00 21.6 C 9.67 g/m*3 21.6 C 8.1 km/h
933 22-06-2014 13:00:00 21.8 C 9.98 g/m*3 21.8 C 9.7 km/h
934 22-06-2014 13:05:00 21.9 C 9.26 g/m*3 21.9 C 8.1 km/h
935 22-06-2014 13:10:00 22.1 C 9.76 g/m*3 22.1 C 9.7 km/h
936 22-06-2014 13:15:00 22 C 8.93 g/m*3 22 C 12.9 km/h
937 22-06-2014 13:20:00 21.6 C 9.29 g/m*3 21.6 C 12.9 km/h
938 22-06-2014 13:25:00 21.5 C 8.67 g/m*3 21.5 C 12.9 km/h
939 22-06-2014 13:30:00 21.4 C 8.81 g/m*3 21.4 C 14.5 km/h
940 22-06-2014 13:35:00 21.4 C 8.81 g/m*3 21.4 C 12.9 km/h
941 22-06-2014 14:00:00 21.4 C 8.62 g/m*3 21.4 C 9.7 km/h
942 22-06-2014 14:05:00 22 C 8.35 g/m*3 22 C 12.9 km/h
943 22-06-2014 14:10:00 22.6 C 9.24 g/m*3 22.6 C 9.7 km/h
944 22-06-2014 14:15:00 23.2 C 8.94 g/m*3 23.2 C 16.1 km/h
945 22-06-2014 14:20:00 23.2 C 8.11 g/m*3 23.2 C 9.7 km/h
946 22-06-2014 14:25:00 22.6 C 8.04 g/m*3 22.6 C 6.4 km/h
947 22-06-2014 14:30:00 22.7 C 8.28 g/m*3 22.7 C 11.3 km/h
948 22-06-2014 14:35:00 22.9 C 8.17 g/m*3 22.9 C 16.1 km/h
949 22-06-2014 14:40:00 22.6 C 8.04 g/m*3 22.6 C 16.1 km/h
950 22-06-2014 14:45:00 22.5 C 8.39 g/m*3 22.5 C 14.5 km/h
Sensor: Nr:Datum:Temp:Abs-Feuchte:Windchill:Wind:
Aussen-T/F 951 22-06-2014 14:50:00 22.6 C 8.24 g/m*3 22.6 C 12.9 km/h
952 22-06-2014 14:55:00 22.5 C 8.39 g/m*3 22.5 C 8.1 km/h
953 22-06-2014 15:00:00 22.4 C 8.74 g/m*3 22.4 C 9.7 km/h
954 22-06-2014 15:05:00 22.6 C 8.24 g/m*3 22.6 C 14.5 km/h
955 22-06-2014 15:10:00 22.7 C 8.28 g/m*3 22.7 C 9.7 km/h
956 22-06-2014 15:15:00 22.7 C 8.28 g/m*3 22.7 C 9.7 km/h
957 22-06-2014 15:20:00 22.3 C 7.9 g/m*3 22.3 C 6.4 km/h
958 22-06-2014 15:25:00 22.5 C 7.99 g/m*3 22.5 C 12.9 km/h
959 22-06-2014 15:30:00 22.9 C 7.97 g/m*3 22.9 C 12.9 km/h
960 22-06-2014 15:35:00 23.4 C 8.41 g/m*3 23.4 C 14.5 km/h
961 22-06-2014 15:40:00 23.6 C 8.29 g/m*3 23.6 C 17.7 km/h
962 22-06-2014 15:45:00 23.4 C 8.41 g/m*3 23.4 C 16.1 km/h
963 22-06-2014 15:50:00 23.7 C 8.13 g/m*3 23.7 C 12.9 km/h
964 22-06-2014 15:55:00 23.7 C 8.56 g/m*3 23.7 C 11.3 km/h
965 22-06-2014 16:00:00 23.9 C 8 g/m*3 23.9 C 12.9 km/h
966 22-06-2014 16:05:00 23.8 C 7.96 g/m*3 23.8 C 20.9 km/h
967 22-06-2014 16:10:00 23.8 C 8.17 g/m*3 23.8 C 9.7 km/h
968 22-06-2014 16:15:00 24 C 7.83 g/m*3 24 C 12.9 km/h
969 22-06-2014 16:20:00 23.9 C 7.79 g/m*3 23.9 C 9.7 km/h
970 22-06-2014 16:25:00 23.6 C 7.87 g/m*3 23.6 C 12.9 km/h
971 22-06-2014 16:30:00 23.4 C 7.99 g/m*3 23.4 C 6.4 km/h
972 22-06-2014 16:35:00 23.2 C 8.32 g/m*3 23.2 C 9.7 km/h
973 22-06-2014 16:40:00 23.3 C 8.36 g/m*3 23.3 C 16.1 km/h
974 22-06-2014 16:45:00 23.7 C 8.34 g/m*3 23.7 C 11.3 km/h
975 22-06-2014 16:50:00 23.9 C 8.22 g/m*3 23.9 C 11.3 km/h
Sensor: Nr:Datum:Temp:Abs-Feuchte:Windchill:Wind:
Aussen-T/F 976 22-06-2014 16:55:00 23.4 C 8.2 g/m*3 23.4 C 11.3 km/h
977 22-06-2014 17:00:00 23.4 C 8.2 g/m*3 23.4 C 11.3 km/h
978 22-06-2014 17:05:00 23.7 C 8.34 g/m*3 23.7 C 17.7 km/h
979 22-06-2014 17:10:00 23.6 C 8.08 g/m*3 23.6 C 16.1 km/h
980 22-06-2014 17:15:00 23.1 C 7.86 g/m*3 23.1 C 9.7 km/h
981 22-06-2014 17:20:00 22.9 C 8.38 g/m*3 22.9 C 14.5 km/h
982 22-06-2014 17:25:00 23.1 C 8.06 g/m*3 23.1 C 11.3 km/h
983 22-06-2014 17:30:00 23.1 C 8.27 g/m*3 23.1 C 9.7 km/h
984 22-06-2014 17:35:00 23.3 C 8.36 g/m*3 23.3 C 9.7 km/h
985 22-06-2014 17:40:00 23.7 C 8.34 g/m*3 23.7 C 11.3 km/h
986 22-06-2014 17:45:00 23.9 C 8.65 g/m*3 23.9 C 8.1 km/h
987 22-06-2014 17:50:00 23.9 C 8.22 g/m*3 23.9 C 8.1 km/h
988 22-06-2014 17:55:00 23.9 C 8.65 g/m*3 23.9 C 12.9 km/h
989 22-06-2014 18:00:00 23.6 C 8.29 g/m*3 23.6 C 14.5 km/h
990 22-06-2014 18:05:00 22.8 C 8.33 g/m*3 22.8 C 12.9 km/h
991 22-06-2014 18:10:00 22.3 C 8.29 g/m*3 22.3 C 9.7 km/h
992 22-06-2014 18:15:00 21.9 C 8.3 g/m*3 21.9 C 9.7 km/h
993 22-06-2014 18:20:00 21.8 C 8.44 g/m*3 21.8 C 8.1 km/h
994 22-06-2014 18:25:00 21.8 C 8.63 g/m*3 21.8 C 11.3 km/h
995 22-06-2014 18:30:00 21.7 C 8.58 g/m*3 21.7 C 9.7 km/h
996 22-06-2014 18:35:00 21.5 C 8.49 g/m*3 21.5 C 9.7 km/h
997 22-06-2014 18:40:00 21.6 C 8.72 g/m*3 21.6 C 9.7 km/h
998 22-06-2014 18:45:00 22.2 C 8.44 g/m*3 22.2 C 8.1 km/h
999 22-06-2014 18:50:00 22.7 C 8.89 g/m*3 22.7 C 9.7 km/h
1000 22-06-2014 18:55:00 23 C 8.43 g/m*3 23 C 9.7 km/h
Sensor: Nr:Datum:Temp:Abs-Feuchte:Windchill:Wind:
Aussen-T/F 1001 22-06-2014 19:00:00 23.2 C 8.52 g/m*3 23.2 C 8.1 km/h
1002 22-06-2014 19:05:00 23.1 C 8.27 g/m*3 23.1 C 9.7 km/h
1003 22-06-2014 19:10:00 22.6 C 8.44 g/m*3 22.6 C 12.9 km/h
1004 22-06-2014 19:15:00 22.1 C 8.39 g/m*3 22.1 C 8.1 km/h
1005 22-06-2014 19:20:00 21.7 C 8.39 g/m*3 21.7 C 14.5 km/h
1006 22-06-2014 19:25:00 21.4 C 8.44 g/m*3 21.4 C 9.7 km/h
1007 22-06-2014 19:30:00 21.3 C 8.39 g/m*3 21.3 C 6.4 km/h
1008 22-06-2014 19:35:00 21.1 C 8.48 g/m*3 21.1 C 8.1 km/h
1009 22-06-2014 19:40:00 20.9 C 8.56 g/m*3 20.9 C 4.8 km/h
1010 22-06-2014 19:45:00 20.8 C 8.69 g/m*3 20.8 C 6.4 km/h
1011 22-06-2014 19:50:00 20.8 C 8.69 g/m*3 20.8 C 6.4 km/h
1012 22-06-2014 19:55:00 20.7 C 8.82 g/m*3 20.7 C 8.1 km/h
1013 22-06-2014 20:00:00 20.6 C 8.95 g/m*3 20.6 C 8.1 km/h
1014 22-06-2014 20:05:00 20.5 C 8.9 g/m*3 20.5 C 6.4 km/h
1015 22-06-2014 20:10:00 20.4 C 8.67 g/m*3 20.4 C 4.8 km/h
1016 22-06-2014 20:15:00 20.4 C 8.67 g/m*3 20.4 C 6.4 km/h
1017 22-06-2014 20:20:00 20.4 C 8.67 g/m*3 20.4 C 3.2 km/h
1018 22-06-2014 20:25:00 20.3 C 8.62 g/m*3 20.3 C 6.4 km/h
1019 22-06-2014 20:30:00 20.2 C 8.74 g/m*3 20.2 C 6.4 km/h
1020 22-06-2014 20:35:00 20.1 C 8.69 g/m*3 20.1 C 6.4 km/h
1021 22-06-2014 20:40:00 19.9 C 8.59 g/m*3 19.9 C 4.8 km/h
1022 22-06-2014 20:45:00 19.9 C 8.59 g/m*3 19.9 C 6.4 km/h
1023 22-06-2014 20:50:00 19.8 C 8.54 g/m*3 19.8 C 4.8 km/h
1024 22-06-2014 20:55:00 19.7 C 8.66 g/m*3 19.7 C 1.6 km/h
1025 22-06-2014 21:00:00 19.6 C 8.78 g/m*3 19.6 C 1.6 km/h
Sensor: Nr:Datum:Temp:Abs-Feuchte:Windchill:Wind:
Aussen-T/F 1026 22-06-2014 21:05:00 19.4 C 8.68 g/m*3 19.4 C 0 km/h
1027 22-06-2014 21:10:00 19.3 C 8.96 g/m*3 19.3 C 1.6 km/h
1028 22-06-2014 21:15:00 18.9 C 8.91 g/m*3 18.9 C 1.6 km/h
1029 22-06-2014 21:20:00 18.5 C 9.02 g/m*3 18.5 C 0 km/h
1030 22-06-2014 21:25:00 18.1 C 9.12 g/m*3 18.1 C 0 km/h
1031 22-06-2014 21:30:00 17.6 C 9.15 g/m*3 17.6 C 0 km/h
1032 22-06-2014 21:35:00 17.2 C 8.93 g/m*3 17.2 C 0 km/h
1033 22-06-2014 21:40:00 16.9 C 9.06 g/m*3 16.9 C 0 km/h
1034 22-06-2014 21:45:00 16.7 C 8.95 g/m*3 16.7 C 0 km/h
1035 22-06-2014 21:50:00 16.6 C 9.04 g/m*3 16.6 C 0 km/h
1036 22-06-2014 21:55:00 16.4 C 8.93 g/m*3 16.4 C 1.6 km/h
1037 22-06-2014 22:00:00 16.2 C 8.96 g/m*3 16.2 C 0 km/h
1038 22-06-2014 22:05:00 16.1 C 8.91 g/m*3 16.1 C 0 km/h
1039 22-06-2014 22:10:00 16 C 8.99 g/m*3 16 C 0 km/h
1040 22-06-2014 22:15:00 15.9 C 9.21 g/m*3 15.9 C 0 km/h
1041 22-06-2014 22:20:00 15.8 C 9.15 g/m*3 15.8 C 1.6 km/h
1042 22-06-2014 22:25:00 15.8 C 9.29 g/m*3 15.8 C 1.6 km/h
1043 22-06-2014 22:30:00 15.7 C 9.23 g/m*3 15.7 C 0 km/h
1044 22-06-2014 22:35:00 15.7 C 9.23 g/m*3 15.7 C 0 km/h
1045 22-06-2014 22:40:00 15.7 C 9.23 g/m*3 15.7 C 0 km/h
1046 22-06-2014 22:45:00 15.7 C 9.37 g/m*3 15.7 C 0 km/h
1047 22-06-2014 22:50:00 15.7 C 9.37 g/m*3 15.7 C 0 km/h
1048 22-06-2014 22:55:00 15.7 C 9.37 g/m*3 15.7 C 0 km/h
1049 22-06-2014 23:00:00 15.6 C 9.31 g/m*3 15.6 C 0 km/h
1050 22-06-2014 23:05:00 15.5 C 9.25 g/m*3 15.5 C 0 km/h
Sensor: Nr:Datum:Temp:Abs-Feuchte:Windchill:Wind:
Aussen-T/F 1051 22-06-2014 23:10:00 15.5 C 9.25 g/m*3 15.5 C 0 km/h
1052 22-06-2014 23:15:00 15.5 C 9.39 g/m*3 15.5 C 0 km/h
1053 22-06-2014 23:20:00 15.5 C 9.39 g/m*3 15.5 C 0 km/h
1054 22-06-2014 23:25:00 15.4 C 9.33 g/m*3 15.4 C 1.6 km/h
1055 22-06-2014 23:30:00 15.3 C 9.27 g/m*3 15.3 C 0 km/h
1056 22-06-2014 23:35:00 15.2 C 9.22 g/m*3 15.2 C 0 km/h
1057 22-06-2014 23:40:00 15.1 C 9.16 g/m*3 15.1 C 0 km/h
1058 22-06-2014 23:45:00 15 C 9.23 g/m*3 15 C 0 km/h
1059 22-06-2014 23:50:00 14.8 C 9.12 g/m*3 14.8 C 0 km/h
1060 22-06-2014 23:55:00 14.7 C 9.19 g/m*3 14.7 C 0 km/h
1061 23-06-2014 00:00:00 14.4 C 9.15 g/m*3 14.4 C 0 km/h
1062 23-06-2014 00:05:00 14.3 C 9.21 g/m*3 14.3 C 0 km/h
1063 23-06-2014 00:10:00 14.3 C 9.21 g/m*3 14.3 C 0 km/h
1064 23-06-2014 00:15:00 14.2 C 9.16 g/m*3 14.2 C 1.6 km/h
1065 23-06-2014 00:20:00 14.3 C 9.21 g/m*3 14.3 C 1.6 km/h
1066 23-06-2014 00:25:00 14.3 C 9.21 g/m*3 14.3 C 0 km/h
1067 23-06-2014 00:30:00 14.2 C 9.16 g/m*3 14.2 C 0 km/h
1068 23-06-2014 00:35:00 14.1 C 9.1 g/m*3 14.1 C 0 km/h
1069 23-06-2014 00:40:00 13.9 C 9.11 g/m*3 13.9 C 0 km/h
1070 23-06-2014 00:45:00 13.8 C 9.17 g/m*3 13.8 C 0 km/h
1071 23-06-2014 00:50:00 13.7 C 9.24 g/m*3 13.7 C 0 km/h
1072 23-06-2014 00:55:00 13.6 C 9.18 g/m*3 13.6 C 1.6 km/h
1073 23-06-2014 01:00:00 13.6 C 9.18 g/m*3 13.6 C 0 km/h
1074 23-06-2014 01:05:00 13.6 C 9.06 g/m*3 13.6 C 0 km/h
1075 23-06-2014 01:10:00 13.4 C 9.07 g/m*3 13.4 C 0 km/h
Sensor: Nr:Datum:Temp:Abs-Feuchte:Windchill:Wind:
Aussen-T/F 1076 23-06-2014 01:15:00 13.3 C 9.01 g/m*3 13.3 C 0 km/h
1077 23-06-2014 01:20:00 13.2 C 9.07 g/m*3 13.2 C 0 km/h
1078 23-06-2014 01:25:00 13.2 C 9.07 g/m*3 13.2 C 0 km/h
1079 23-06-2014 01:30:00 13.1 C 9.01 g/m*3 13.1 C 0 km/h
1080 23-06-2014 01:35:00 13 C 9.07 g/m*3 13 C 0 km/h
1081 23-06-2014 01:40:00 12.9 C 9.02 g/m*3 12.9 C 0 km/h
1082 23-06-2014 01:45:00 12.8 C 8.96 g/m*3 12.8 C 0 km/h
1083 23-06-2014 01:50:00 12.6 C 8.96 g/m*3 12.6 C 0 km/h
1084 23-06-2014 01:55:00 12.4 C 8.96 g/m*3 12.4 C 0 km/h
1085 23-06-2014 02:00:00 12.3 C 8.9 g/m*3 12.3 C 0 km/h
1086 23-06-2014 02:05:00 12.2 C 8.96 g/m*3 12.2 C 0 km/h
1087 23-06-2014 02:10:00 12.1 C 9.01 g/m*3 12.1 C 0 km/h
1088 23-06-2014 02:15:00 11.9 C 8.9 g/m*3 11.9 C 0 km/h
1089 23-06-2014 02:20:00 11.8 C 8.84 g/m*3 11.8 C 0 km/h
1090 23-06-2014 02:25:00 11.8 C 8.95 g/m*3 11.8 C 0 km/h
1091 23-06-2014 02:30:00 11.7 C 8.89 g/m*3 11.7 C 0 km/h
1092 23-06-2014 02:35:00 11.6 C 8.83 g/m*3 11.6 C 0 km/h
1093 23-06-2014 02:40:00 11.6 C 8.94 g/m*3 11.6 C 0 km/h
1094 23-06-2014 02:45:00 11.6 C 8.83 g/m*3 11.6 C 0 km/h
1095 23-06-2014 02:50:00 11.5 C 8.88 g/m*3 11.5 C 0 km/h
1096 23-06-2014 02:55:00 11.4 C 8.83 g/m*3 11.4 C 0 km/h
1097 23-06-2014 03:00:00 11.3 C 8.77 g/m*3 11.3 C 0 km/h
1098 23-06-2014 03:05:00 11.2 C 8.72 g/m*3 11.2 C 0 km/h
1099 23-06-2014 03:10:00 11.2 C 8.82 g/m*3 11.2 C 0 km/h
1100 23-06-2014 03:15:00 11.1 C 8.76 g/m*3 11.1 C 0 km/h
Sensor: Nr:Datum:Temp:Abs-Feuchte:Windchill:Wind:
Aussen-T/F 1101 23-06-2014 03:20:00 10.9 C 8.65 g/m*3 10.9 C 0 km/h
1102 23-06-2014 03:25:00 10.9 C 8.75 g/m*3 10.9 C 0 km/h
1103 23-06-2014 03:30:00 10.8 C 8.7 g/m*3 10.8 C 0 km/h
1104 23-06-2014 03:35:00 10.8 C 8.7 g/m*3 10.8 C 0 km/h
1105 23-06-2014 03:40:00 10.7 C 8.74 g/m*3 10.7 C 0 km/h
1106 23-06-2014 03:45:00 10.7 C 8.74 g/m*3 10.7 C 0 km/h
1107 23-06-2014 03:50:00 10.6 C 8.69 g/m*3 10.6 C 0 km/h
1108 23-06-2014 03:55:00 10.6 C 8.69 g/m*3 10.6 C 0 km/h
1109 23-06-2014 04:00:00 10.5 C 8.63 g/m*3 10.5 C 0 km/h
1110 23-06-2014 04:05:00 10.4 C 8.67 g/m*3 10.4 C 0 km/h
1111 23-06-2014 04:10:00 10.4 C 8.67 g/m*3 10.4 C 0 km/h
1112 23-06-2014 04:15:00 10.3 C 8.62 g/m*3 10.3 C 0 km/h
1113 23-06-2014 04:20:00 10.3 C 8.62 g/m*3 10.3 C 0 km/h
1114 23-06-2014 04:25:00 10.2 C 8.56 g/m*3 10.2 C 0 km/h
1115 23-06-2014 04:30:00 10.2 C 8.56 g/m*3 10.2 C 0 km/h
1116 23-06-2014 04:35:00 10.1 C 8.51 g/m*3 10.1 C 0 km/h
1117 23-06-2014 04:40:00 10.1 C 8.51 g/m*3 10.1 C 0 km/h
1118 23-06-2014 04:45:00 10 C 8.55 g/m*3 10 C 0 km/h
1119 23-06-2014 04:50:00 9.9 C 8.5 g/m*3 9.9 C 0 km/h
1120 23-06-2014 04:55:00 9.9 C 8.5 g/m*3 9.9 C 0 km/h
1121 23-06-2014 05:00:00 9.8 C 8.44 g/m*3 9.8 C 0 km/h
1122 23-06-2014 05:05:00 9.8 C 8.44 g/m*3 9.8 C 0 km/h
1123 23-06-2014 05:10:00 9.8 C 8.44 g/m*3 9.8 C 0 km/h
1124 23-06-2014 05:15:00 9.8 C 8.54 g/m*3 9.8 C 0 km/h
1125 23-06-2014 05:20:00 9.8 C 8.54 g/m*3 9.8 C 0 km/h
Sensor: Nr:Datum:Temp:Abs-Feuchte:Windchill:Wind:
Aussen-T/F 1126 23-06-2014 05:25:00 9.8 C 8.54 g/m*3 9.8 C 0 km/h
1127 23-06-2014 05:30:00 9.8 C 8.54 g/m*3 9.8 C 1.6 km/h
1128 23-06-2014 05:35:00 9.8 C 8.54 g/m*3 9.8 C 0 km/h
1129 23-06-2014 05:40:00 9.8 C 8.54 g/m*3 9.8 C 0 km/h
1130 23-06-2014 05:45:00 9.8 C 8.54 g/m*3 9.8 C 0 km/h
1131 23-06-2014 05:50:00 9.9 C 8.59 g/m*3 9.9 C 0 km/h
1132 23-06-2014 05:55:00 9.9 C 8.59 g/m*3 9.9 C 0 km/h
1133 23-06-2014 06:00:00 9.9 C 8.59 g/m*3 9.9 C 0 km/h
1134 23-06-2014 06:05:00 9.9 C 8.59 g/m*3 9.9 C 0 km/h
1135 23-06-2014 06:10:00 9.9 C 8.59 g/m*3 9.9 C 0 km/h
1136 23-06-2014 06:15:00 10 C 8.55 g/m*3 10 C 0 km/h
1137 23-06-2014 06:20:00 10.1 C 8.61 g/m*3 10.1 C 0 km/h
1138 23-06-2014 06:25:00 10 C 8.55 g/m*3 10 C 0 km/h
1139 23-06-2014 06:30:00 10 C 8.55 g/m*3 10 C 0 km/h
1140 23-06-2014 06:35:00 9.9 C 8.5 g/m*3 9.9 C 0 km/h
1141 23-06-2014 06:40:00 9.9 C 8.59 g/m*3 9.9 C 0 km/h
1142 23-06-2014 06:45:00 9.9 C 8.5 g/m*3 9.9 C 0 km/h
1143 23-06-2014 06:50:00 9.9 C 8.59 g/m*3 9.9 C 0 km/h
1144 23-06-2014 06:55:00 9.9 C 8.59 g/m*3 9.9 C 0 km/h
1145 23-06-2014 07:00:00 9.9 C 8.59 g/m*3 9.9 C 0 km/h
1146 23-06-2014 07:05:00 9.9 C 8.59 g/m*3 9.9 C 0 km/h
1147 23-06-2014 07:10:00 10 C 8.64 g/m*3 10 C 0 km/h
1148 23-06-2014 07:15:00 10.1 C 8.7 g/m*3 10.1 C 0 km/h
1149 23-06-2014 07:20:00 10.2 C 8.76 g/m*3 10.2 C 0 km/h
1150 23-06-2014 07:25:00 10.3 C 8.81 g/m*3 10.3 C 0 km/h
Sensor: Nr:Datum:Temp:Abs-Feuchte:Windchill:Wind:
Aussen-T/F 1151 23-06-2014 07:30:00 10.6 C 9.08 g/m*3 10.6 C 0 km/h
1152 23-06-2014 07:35:00 10.7 C 9.13 g/m*3 10.7 C 0 km/h
1153 23-06-2014 07:40:00 10.9 C 9.15 g/m*3 10.9 C 0 km/h
1154 23-06-2014 07:45:00 11.1 C 9.27 g/m*3 11.1 C 0 km/h
1155 23-06-2014 07:50:00 11.2 C 9.33 g/m*3 11.2 C 0 km/h
1156 23-06-2014 07:55:00 11.3 C 9.28 g/m*3 11.3 C 0 km/h
1157 23-06-2014 08:00:00 11.6 C 9.46 g/m*3 11.6 C 0 km/h
1158 23-06-2014 08:05:00 11.8 C 9.47 g/m*3 11.8 C 0 km/h
1159 23-06-2014 08:10:00 12.1 C 9.54 g/m*3 12.1 C 0 km/h
1160 23-06-2014 08:15:00 12.3 C 9.45 g/m*3 12.3 C 0 km/h
1161 23-06-2014 08:20:00 12.8 C 9.63 g/m*3 12.8 C 0 km/h
1162 23-06-2014 08:25:00 13.2 C 9.76 g/m*3 13.2 C 0 km/h
1163 23-06-2014 08:30:00 13.5 C 9.71 g/m*3 13.5 C 1.6 km/h
1164 23-06-2014 08:35:00 13.7 C 9.71 g/m*3 13.7 C 1.6 km/h
1165 23-06-2014 08:40:00 13.9 C 9.59 g/m*3 13.9 C 0 km/h
1166 23-06-2014 08:45:00 14.1 C 9.83 g/m*3 14.1 C 0 km/h
1167 23-06-2014 08:50:00 14.4 C 9.89 g/m*3 14.4 C 3.2 km/h
1168 23-06-2014 08:55:00 14.7 C 9.95 g/m*3 14.7 C 4.8 km/h
1169 23-06-2014 09:00:00 15 C 9.87 g/m*3 15 C 4.8 km/h
1170 23-06-2014 09:05:00 15.2 C 9.86 g/m*3 15.2 C 1.6 km/h
1171 23-06-2014 09:10:00 15.2 C 9.86 g/m*3 15.2 C 3.2 km/h
1172 23-06-2014 09:15:00 15.3 C 9.92 g/m*3 15.3 C 6.4 km/h
1173 23-06-2014 09:20:00 15.2 C 9.86 g/m*3 15.2 C 6.4 km/h
1174 23-06-2014 09:25:00 15.2 C 9.73 g/m*3 15.2 C 1.6 km/h
1175 23-06-2014 09:30:00 15.2 C 9.73 g/m*3 15.2 C 4.8 km/h
Sensor: Nr:Datum:Temp:Abs-Feuchte:Windchill:Wind:
Aussen-T/F 1176 23-06-2014 09:35:00 15.3 C 9.79 g/m*3 15.3 C 4.8 km/h
1177 23-06-2014 09:40:00 15.5 C 9.91 g/m*3 15.5 C 3.2 km/h
1178 23-06-2014 09:45:00 15.8 C 9.69 g/m*3 15.8 C 4.8 km/h
1179 23-06-2014 09:50:00 15.9 C 9.62 g/m*3 15.9 C 4.8 km/h
1180 23-06-2014 09:55:00 16.2 C 9.65 g/m*3 16.2 C 4.8 km/h
1181 23-06-2014 10:00:00 16.5 C 9.97 g/m*3 16.5 C 6.4 km/h
1182 23-06-2014 10:05:00 17.1 C 9.9 g/m*3 17.1 C 6.4 km/h
1183 23-06-2014 10:10:00 17.4 C 9.63 g/m*3 17.4 C 6.4 km/h
1184 23-06-2014 10:15:00 17.6 C 9.75 g/m*3 17.6 C 8.1 km/h
1185 23-06-2014 10:20:00 17.9 C 9.77 g/m*3 17.9 C 8.1 km/h
1186 23-06-2014 10:25:00 17.9 C 9.62 g/m*3 17.9 C 8.1 km/h
1187 23-06-2014 10:30:00 17.7 C 9.35 g/m*3 17.7 C 8.1 km/h
1188 23-06-2014 10:35:00 17.8 C 9.56 g/m*3 17.8 C 6.4 km/h
1189 23-06-2014 10:40:00 17.9 C 9.47 g/m*3 17.9 C 8.1 km/h
1190 23-06-2014 10:45:00 18.2 C 9.64 g/m*3 18.2 C 6.4 km/h
1191 23-06-2014 10:50:00 18.5 C 9.49 g/m*3 18.5 C 8.1 km/h
1192 23-06-2014 10:55:00 18.4 C 9.12 g/m*3 18.4 C 8.1 km/h
1193 23-06-2014 11:00:00 18.3 C 9.54 g/m*3 18.3 C 9.7 km/h
1194 23-06-2014 11:05:00 18.5 C 9.33 g/m*3 18.5 C 9.7 km/h
1195 23-06-2014 11:10:00 18.6 C 9.39 g/m*3 18.6 C 8.1 km/h
1196 23-06-2014 11:15:00 18.7 C 9.61 g/m*3 18.7 C 9.7 km/h
1197 23-06-2014 11:20:00 18.9 C 9.4 g/m*3 18.9 C 6.4 km/h
1198 23-06-2014 11:25:00 19.1 C 9.67 g/m*3 19.1 C 8.1 km/h
1199 23-06-2014 11:30:00 19.3 C 9.62 g/m*3 19.3 C 4.8 km/h
1200 23-06-2014 11:35:00 19.6 C 9.45 g/m*3 19.6 C 8.1 km/h
Sensor: Nr:Datum:Temp:Abs-Feuchte:Windchill:Wind:
Aussen-T/F 1201 23-06-2014 11:40:00 19.6 C 9.28 g/m*3 19.6 C 8.1 km/h
1202 23-06-2014 11:45:00 19.8 C 9.22 g/m*3 19.8 C 11.3 km/h
1203 23-06-2014 11:50:00 19.9 C 9.11 g/m*3 19.9 C 9.7 km/h
1204 23-06-2014 11:55:00 19.8 C 9.39 g/m*3 19.8 C 8.1 km/h
1205 23-06-2014 12:00:00 19.8 C 9.39 g/m*3 19.8 C 8.1 km/h
1206 23-06-2014 12:05:00 19.8 C 9.39 g/m*3 19.8 C 11.3 km/h
1207 23-06-2014 12:10:00 19.8 C 9.22 g/m*3 19.8 C 12.9 km/h
1208 23-06-2014 12:15:00 20.2 C 9.27 g/m*3 20.2 C 12.9 km/h
1209 23-06-2014 12:20:00 20.3 C 8.97 g/m*3 20.3 C 8.1 km/h
1210 23-06-2014 12:25:00 20.5 C 9.43 g/m*3 20.5 C 8.1 km/h
1211 23-06-2014 12:30:00 20.6 C 9.31 g/m*3 20.6 C 9.7 km/h
1212 23-06-2014 12:35:00 20.7 C 9.36 g/m*3 20.7 C 6.4 km/h
1213 23-06-2014 12:40:00 20.6 C 9.13 g/m*3 20.6 C 9.7 km/h
1214 23-06-2014 12:45:00 20.7 C 9.18 g/m*3 20.7 C 11.3 km/h
1215 23-06-2014 12:50:00 21 C 8.98 g/m*3 21 C 11.3 km/h
1216 23-06-2014 12:55:00 20.9 C 9.29 g/m*3 20.9 C 12.9 km/h
1217 23-06-2014 13:00:00 21 C 9.53 g/m*3 21 C 8.1 km/h
1218 23-06-2014 13:05:00 20.9 C 9.47 g/m*3 20.9 C 6.4 km/h
1219 23-06-2014 13:10:00 20.8 C 9.23 g/m*3 20.8 C 6.4 km/h
1220 23-06-2014 13:15:00 21.1 C 8.84 g/m*3 21.1 C 12.9 km/h
1221 23-06-2014 13:20:00 21.3 C 8.95 g/m*3 21.3 C 12.9 km/h
1222 23-06-2014 13:25:00 21.3 C 8.76 g/m*3 21.3 C 9.7 km/h
1223 23-06-2014 13:30:00 21.7 C 9.92 g/m*3 21.7 C 9.7 km/h
1224 23-06-2014 13:35:00 22 C 9.32 g/m*3 22 C 14.5 km/h
1225 23-06-2014 13:40:00 21.8 C 9.21 g/m*3 21.8 C 11.3 km/h
Sensor: Nr:Datum:Temp:Abs-Feuchte:Windchill:Wind:
Aussen-T/F 1226 23-06-2014 13:45:00 21.7 C 9.16 g/m*3 21.7 C 6.4 km/h
1227 23-06-2014 13:50:00 21.9 C 9.07 g/m*3 21.9 C 11.3 km/h
1228 23-06-2014 13:55:00 21.9 C 9.07 g/m*3 21.9 C 8.1 km/h
1229 23-06-2014 14:00:00 21.9 C 9.26 g/m*3 21.9 C 9.7 km/h
1230 23-06-2014 14:05:00 21.9 C 8.88 g/m*3 21.9 C 9.7 km/h
1231 23-06-2014 14:10:00 21.9 C 8.88 g/m*3 21.9 C 8.1 km/h
1232 23-06-2014 14:15:00 21.9 C 9.46 g/m*3 21.9 C 11.3 km/h
1233 23-06-2014 14:20:00 22.3 C 9.48 g/m*3 22.3 C 9.7 km/h
1234 23-06-2014 14:25:00 22.4 C 9.33 g/m*3 22.4 C 14.5 km/h
1235 23-06-2014 14:30:00 22.6 C 9.44 g/m*3 22.6 C 11.3 km/h
1236 23-06-2014 14:35:00 22.4 C 8.74 g/m*3 22.4 C 4.8 km/h
1237 23-06-2014 14:40:00 22.3 C 9.28 g/m*3 22.3 C 8.1 km/h
1238 23-06-2014 14:45:00 22.7 C 8.89 g/m*3 22.7 C 9.7 km/h
1239 23-06-2014 14:50:00 22.9 C 8.99 g/m*3 22.9 C 9.7 km/h
1240 23-06-2014 14:55:00 23.1 C 9.1 g/m*3 23.1 C 4.8 km/h
1241 23-06-2014 15:00:00 23 C 8.63 g/m*3 23 C 8.1 km/h
1242 23-06-2014 15:05:00 23 C 8.84 g/m*3 23 C 4.8 km/h
1243 23-06-2014 15:10:00 23.1 C 8.89 g/m*3 23.1 C 3.2 km/h
1244 23-06-2014 15:15:00 23.3 C 9.41 g/m*3 23.3 C 11.3 km/h
1245 23-06-2014 15:20:00 23.3 C 9.41 g/m*3 23.3 C 8.1 km/h
1246 23-06-2014 15:25:00 23.8 C 8.6 g/m*3 23.8 C 8.1 km/h
1247 23-06-2014 15:30:00 23.9 C 8.22 g/m*3 23.9 C 8.1 km/h
1248 23-06-2014 15:35:00 24.1 C 9.19 g/m*3 24.1 C 9.7 km/h
1249 23-06-2014 15:40:00 24.3 C 8.63 g/m*3 24.3 C 11.3 km/h
1250 23-06-2014 15:45:00 24.3 C 8.63 g/m*3 24.3 C 6.4 km/h
Sensor: Nr:Datum:Temp:Abs-Feuchte:Windchill:Wind:
Aussen-T/F 1251 23-06-2014 15:50:00 24.2 C 8.8 g/m*3 24.2 C 11.3 km/h
1252 23-06-2014 15:55:00 24.1 C 9.19 g/m*3 24.1 C 9.7 km/h
1253 23-06-2014 16:00:00 23.9 C 8.65 g/m*3 23.9 C 11.3 km/h
1254 23-06-2014 16:05:00 24.1 C 9.41 g/m*3 24.1 C 9.7 km/h
1255 23-06-2014 16:10:00 24.3 C 8.63 g/m*3 24.3 C 9.7 km/h
1256 23-06-2014 16:15:00 24.2 C 8.8 g/m*3 24.2 C 8.1 km/h
1257 23-06-2014 16:20:00 24.1 C 8.75 g/m*3 24.1 C 8.1 km/h
1258 23-06-2014 16:25:00 23.9 C 8.65 g/m*3 23.9 C 11.3 km/h
1259 23-06-2014 16:30:00 23.9 C 8.65 g/m*3 23.9 C 11.3 km/h
1260 23-06-2014 16:35:00 23.9 C 8.44 g/m*3 23.9 C 6.4 km/h
1261 23-06-2014 16:40:00 24.1 C 8.97 g/m*3 24.1 C 14.5 km/h
1262 23-06-2014 16:45:00 24.7 C 8.83 g/m*3 24.7 C 11.3 km/h
1263 23-06-2014 16:50:00 24.6 C 8.55 g/m*3 24.6 C 14.5 km/h
1264 23-06-2014 16:55:00 24.5 C 8.5 g/m*3 24.5 C 8.1 km/h
1265 23-06-2014 17:00:00 24.4 C 8.9 g/m*3 24.4 C 8.1 km/h
1266 23-06-2014 17:05:00 24.3 C 9.07 g/m*3 24.3 C 11.3 km/h
1267 23-06-2014 17:10:00 24.6 C 9 g/m*3 24.6 C 8.1 km/h
1268 23-06-2014 17:15:00 24.7 C 9.05 g/m*3 24.7 C 4.8 km/h
1269 23-06-2014 17:20:00 24.3 C 8.85 g/m*3 24.3 C 9.7 km/h
1270 23-06-2014 17:25:00 23.8 C 9.03 g/m*3 23.8 C 8.1 km/h
1271 23-06-2014 17:30:00 23.8 C 8.82 g/m*3 23.8 C 12.9 km/h
1272 23-06-2014 17:35:00 23.8 C 8.82 g/m*3 23.8 C 11.3 km/h
1273 23-06-2014 17:40:00 24 C 9.14 g/m*3 24 C 16.1 km/h
1274 23-06-2014 17:45:00 24.1 C 8.97 g/m*3 24.1 C 6.4 km/h
1275 23-06-2014 17:50:00 24.1 C 8.97 g/m*3 24.1 C 9.7 km/h
Sensor: Nr:Datum:Temp:Abs-Feuchte:Windchill:Wind:
Aussen-T/F 1276 23-06-2014 17:55:00 24.2 C 8.8 g/m*3 24.2 C 11.3 km/h
1277 23-06-2014 18:00:00 23.8 C 8.82 g/m*3 23.8 C 9.7 km/h
1278 23-06-2014 18:05:00 23.8 C 8.82 g/m*3 23.8 C 8.1 km/h
1279 23-06-2014 18:10:00 23.6 C 8.72 g/m*3 23.6 C 9.7 km/h
1280 23-06-2014 18:15:00 23.3 C 8.78 g/m*3 23.3 C 8.1 km/h
1281 23-06-2014 18:20:00 23.3 C 8.78 g/m*3 23.3 C 9.7 km/h
1282 23-06-2014 18:25:00 23.2 C 8.73 g/m*3 23.2 C 9.7 km/h
1283 23-06-2014 18:30:00 23.2 C 8.73 g/m*3 23.2 C 9.7 km/h
1284 23-06-2014 18:35:00 23.3 C 8.99 g/m*3 23.3 C 4.8 km/h
1285 23-06-2014 18:40:00 23.3 C 8.99 g/m*3 23.3 C 9.7 km/h
1286 23-06-2014 18:45:00 23.4 C 9.04 g/m*3 23.4 C 11.3 km/h
1287 23-06-2014 18:50:00 23.4 C 8.83 g/m*3 23.4 C 11.3 km/h
1288 23-06-2014 18:55:00 23.6 C 8.93 g/m*3 23.6 C 11.3 km/h
1289 23-06-2014 19:00:00 23.6 C 8.72 g/m*3 23.6 C 12.9 km/h
1290 23-06-2014 19:05:00 23.3 C 8.78 g/m*3 23.3 C 9.7 km/h
1291 23-06-2014 19:10:00 22.8 C 8.74 g/m*3 22.8 C 11.3 km/h
1292 23-06-2014 19:15:00 22.6 C 8.84 g/m*3 22.6 C 11.3 km/h
1293 23-06-2014 19:20:00 22.6 C 8.84 g/m*3 22.6 C 12.9 km/h
1294 23-06-2014 19:25:00 22.4 C 8.94 g/m*3 22.4 C 9.7 km/h
1295 23-06-2014 19:30:00 22.3 C 8.89 g/m*3 22.3 C 9.7 km/h
1296 23-06-2014 19:35:00 22.3 C 8.89 g/m*3 22.3 C 9.7 km/h
1297 23-06-2014 19:40:00 22.1 C 8.78 g/m*3 22.1 C 11.3 km/h
1298 23-06-2014 19:45:00 21.9 C 8.88 g/m*3 21.9 C 9.7 km/h
1299 23-06-2014 19:50:00 21.8 C 8.63 g/m*3 21.8 C 9.7 km/h
1300 23-06-2014 19:55:00 21.6 C 8.91 g/m*3 21.6 C 4.8 km/h
Sensor: Nr:Datum:Temp:Abs-Feuchte:Windchill:Wind:
Aussen-T/F 1301 23-06-2014 20:00:00 21.6 C 8.91 g/m*3 21.6 C 9.7 km/h
1302 23-06-2014 20:05:00 21.5 C 8.86 g/m*3 21.5 C 6.4 km/h
1303 23-06-2014 20:10:00 21.5 C 8.86 g/m*3 21.5 C 6.4 km/h
1304 23-06-2014 20:15:00 21.4 C 8.81 g/m*3 21.4 C 6.4 km/h
1305 23-06-2014 20:20:00 21.5 C 9.05 g/m*3 21.5 C 9.7 km/h
1306 23-06-2014 20:25:00 21.5 C 8.86 g/m*3 21.5 C 8.1 km/h
1307 23-06-2014 20:30:00 21.4 C 8.81 g/m*3 21.4 C 8.1 km/h
1308 23-06-2014 20:35:00 21.3 C 8.95 g/m*3 21.3 C 8.1 km/h
1309 23-06-2014 20:40:00 21.1 C 9.03 g/m*3 21.1 C 9.7 km/h
1310 23-06-2014 20:45:00 20.9 C 8.74 g/m*3 20.9 C 11.3 km/h
1311 23-06-2014 20:50:00 20.7 C 8.82 g/m*3 20.7 C 8.1 km/h
1312 23-06-2014 20:55:00 20.7 C 8.82 g/m*3 20.7 C 8.1 km/h
1313 23-06-2014 21:00:00 20.6 C 8.95 g/m*3 20.6 C 11.3 km/h
1314 23-06-2014 21:05:00 20.4 C 9.02 g/m*3 20.4 C 8.1 km/h
1315 23-06-2014 21:10:00 20.4 C 9.02 g/m*3 20.4 C 4.8 km/h
1316 23-06-2014 21:15:00 20.3 C 8.97 g/m*3 20.3 C 4.8 km/h
1317 23-06-2014 21:20:00 20.3 C 8.97 g/m*3 20.3 C 3.2 km/h
1318 23-06-2014 21:25:00 20.1 C 9.04 g/m*3 20.1 C 9.7 km/h
1319 23-06-2014 21:30:00 20 C 8.99 g/m*3 20 C 3.2 km/h
1320 23-06-2014 21:35:00 19.9 C 9.11 g/m*3 19.9 C 6.4 km/h
1321 23-06-2014 21:40:00 19.7 C 9.17 g/m*3 19.7 C 3.2 km/h
1322 23-06-2014 21:45:00 19.6 C 9.12 g/m*3 19.6 C 1.6 km/h
1323 23-06-2014 21:50:00 19.3 C 9.29 g/m*3 19.3 C 0 km/h
1324 23-06-2014 21:55:00 18.9 C 9.4 g/m*3 18.9 C 0 km/h
1325 23-06-2014 22:00:00 18.4 C 9.44 g/m*3 18.4 C 0 km/h
Sensor: Nr:Datum:Temp:Abs-Feuchte:Windchill:Wind:
Aussen-T/F 1326 23-06-2014 22:05:00 17.8 C 9.41 g/m*3 17.8 C 0 km/h
1327 23-06-2014 22:10:00 17.4 C 9.48 g/m*3 17.4 C 0 km/h
1328 23-06-2014 22:15:00 17.1 C 9.32 g/m*3 17.1 C 0 km/h
1329 23-06-2014 22:20:00 16.8 C 9.29 g/m*3 16.8 C 0 km/h
1330 23-06-2014 22:25:00 16.7 C 9.38 g/m*3 16.7 C 1.6 km/h
1331 23-06-2014 22:30:00 16.7 C 9.38 g/m*3 16.7 C 4.8 km/h
1332 23-06-2014 22:35:00 16.6 C 9.32 g/m*3 16.6 C 0 km/h
1333 23-06-2014 22:40:00 16.3 C 9.3 g/m*3 16.3 C 0 km/h
1334 23-06-2014 22:45:00 16.2 C 9.38 g/m*3 16.2 C 0 km/h
1335 23-06-2014 22:50:00 16.1 C 9.32 g/m*3 16.1 C 0 km/h
1336 23-06-2014 22:55:00 15.9 C 9.21 g/m*3 15.9 C 0 km/h
1337 23-06-2014 23:00:00 15.9 C 9.34 g/m*3 15.9 C 0 km/h
1338 23-06-2014 23:05:00 15.9 C 9.34 g/m*3 15.9 C 0 km/h
1339 23-06-2014 23:10:00 15.8 C 9.29 g/m*3 15.8 C 0 km/h
1340 23-06-2014 23:15:00 15.7 C 9.37 g/m*3 15.7 C 0 km/h
1341 23-06-2014 23:20:00 15.6 C 9.31 g/m*3 15.6 C 0 km/h
1342 23-06-2014 23:25:00 15.6 C 9.31 g/m*3 15.6 C 0 km/h
1343 23-06-2014 23:30:00 15.4 C 9.33 g/m*3 15.4 C 0 km/h
1344 23-06-2014 23:35:00 15.4 C 9.33 g/m*3 15.4 C 0 km/h
1345 23-06-2014 23:40:00 15.3 C 9.27 g/m*3 15.3 C 0 km/h
1346 23-06-2014 23:45:00 15.2 C 9.35 g/m*3 15.2 C 0 km/h
1347 23-06-2014 23:50:00 15.1 C 9.29 g/m*3 15.1 C 0 km/h
1348 23-06-2014 23:55:00 15.1 C 9.29 g/m*3 15.1 C 0 km/h
1349 24-06-2014 00:00:00 15.1 C 9.29 g/m*3 15.1 C 0 km/h
1350 24-06-2014 00:05:00 15 C 9.36 g/m*3 15 C 0 km/h
Sensor: Nr:Datum:Temp:Abs-Feuchte:Windchill:Wind:
Aussen-T/F 1351 24-06-2014 00:10:00 14.9 C 9.3 g/m*3 14.9 C 0 km/h
1352 24-06-2014 00:15:00 14.9 C 9.3 g/m*3 14.9 C 0 km/h
1353 24-06-2014 00:20:00 14.8 C 9.37 g/m*3 14.8 C 0 km/h
1354 24-06-2014 00:25:00 14.8 C 9.37 g/m*3 14.8 C 0 km/h
1355 24-06-2014 00:30:00 14.7 C 9.44 g/m*3 14.7 C 0 km/h
1356 24-06-2014 00:35:00 14.6 C 9.39 g/m*3 14.6 C 0 km/h
1357 24-06-2014 00:40:00 14.5 C 9.33 g/m*3 14.5 C 0 km/h
1358 24-06-2014 00:45:00 14.4 C 9.27 g/m*3 14.4 C 0 km/h
1359 24-06-2014 00:50:00 14.3 C 9.34 g/m*3 14.3 C 0 km/h
1360 24-06-2014 00:55:00 14.3 C 9.34 g/m*3 14.3 C 0 km/h
1361 24-06-2014 01:00:00 14.2 C 9.28 g/m*3 14.2 C 0 km/h
1362 24-06-2014 01:05:00 14.1 C 9.34 g/m*3 14.1 C 0 km/h
1363 24-06-2014 01:10:00 13.9 C 9.23 g/m*3 13.9 C 0 km/h
1364 24-06-2014 01:15:00 13.8 C 9.17 g/m*3 13.8 C 0 km/h
1365 24-06-2014 01:20:00 13.7 C 9.24 g/m*3 13.7 C 0 km/h
1366 24-06-2014 01:25:00 13.6 C 9.18 g/m*3 13.6 C 0 km/h
1367 24-06-2014 01:30:00 13.5 C 9.24 g/m*3 13.5 C 0 km/h
1368 24-06-2014 01:35:00 13.4 C 9.18 g/m*3 13.4 C 0 km/h
1369 24-06-2014 01:40:00 13.3 C 9.24 g/m*3 13.3 C 0 km/h
1370 24-06-2014 01:45:00 13.3 C 9.24 g/m*3 13.3 C 0 km/h
1371 24-06-2014 01:50:00 13.2 C 9.3 g/m*3 13.2 C 0 km/h
1372 24-06-2014 01:55:00 13.1 C 9.24 g/m*3 13.1 C 0 km/h
1373 24-06-2014 02:00:00 13 C 9.19 g/m*3 13 C 0 km/h
1374 24-06-2014 02:05:00 12.8 C 9.07 g/m*3 12.8 C 0 km/h
1375 24-06-2014 02:10:00 12.8 C 9.18 g/m*3 12.8 C 0 km/h
Sensor: Nr:Datum:Temp:Abs-Feuchte:Windchill:Wind:
Aussen-T/F 1376 24-06-2014 02:15:00 12.7 C 9.13 g/m*3 12.7 C 0 km/h
1377 24-06-2014 02:20:00 12.6 C 9.07 g/m*3 12.6 C 0 km/h
1378 24-06-2014 02:25:00 12.6 C 9.18 g/m*3 12.6 C 0 km/h
1379 24-06-2014 02:30:00 12.5 C 9.13 g/m*3 12.5 C 0 km/h
1380 24-06-2014 02:35:00 12.4 C 9.07 g/m*3 12.4 C 0 km/h
1381 24-06-2014 02:40:00 12.3 C 9.01 g/m*3 12.3 C 0 km/h
1382 24-06-2014 02:45:00 12.2 C 9.06 g/m*3 12.2 C 0 km/h
1383 24-06-2014 02:50:00 12.1 C 9.01 g/m*3 12.1 C 0 km/h
1384 24-06-2014 02:55:00 12 C 8.95 g/m*3 12 C 0 km/h
1385 24-06-2014 03:00:00 11.9 C 9 g/m*3 11.9 C 0 km/h
1386 24-06-2014 03:05:00 11.8 C 8.95 g/m*3 11.8 C 0 km/h
1387 24-06-2014 03:10:00 11.8 C 8.95 g/m*3 11.8 C 0 km/h
1388 24-06-2014 03:15:00 11.7 C 8.99 g/m*3 11.7 C 0 km/h
1389 24-06-2014 03:20:00 11.7 C 8.99 g/m*3 11.7 C 0 km/h
1390 24-06-2014 03:25:00 11.6 C 8.94 g/m*3 11.6 C 0 km/h
1391 24-06-2014 03:30:00 11.6 C 8.94 g/m*3 11.6 C 0 km/h
1392 24-06-2014 03:35:00 11.5 C 8.99 g/m*3 11.5 C 0 km/h
1393 24-06-2014 03:40:00 11.4 C 8.93 g/m*3 11.4 C 0 km/h
1394 24-06-2014 03:45:00 11.4 C 8.93 g/m*3 11.4 C 0 km/h
1395 24-06-2014 03:50:00 11.3 C 8.87 g/m*3 11.3 C 0 km/h
1396 24-06-2014 03:55:00 11.2 C 8.82 g/m*3 11.2 C 0 km/h
1397 24-06-2014 04:00:00 11.2 C 8.92 g/m*3 11.2 C 0 km/h
1398 24-06-2014 04:05:00 11.1 C 8.86 g/m*3 11.1 C 0 km/h
1399 24-06-2014 04:10:00 11 C 8.81 g/m*3 11 C 0 km/h
1400 24-06-2014 04:15:00 10.9 C 8.85 g/m*3 10.9 C 0 km/h
Sensor: Nr:Datum:Temp:Abs-Feuchte:Windchill:Wind:
Aussen-T/F 1401 24-06-2014 04:20:00 10.9 C 8.85 g/m*3 10.9 C 0 km/h
1402 24-06-2014 04:25:00 10.8 C 8.8 g/m*3 10.8 C 0 km/h
1403 24-06-2014 04:30:00 10.8 C 8.8 g/m*3 10.8 C 0 km/h
1404 24-06-2014 04:35:00 10.7 C 8.74 g/m*3 10.7 C 0 km/h
1405 24-06-2014 04:40:00 10.7 C 8.84 g/m*3 10.7 C 0 km/h
1406 24-06-2014 04:45:00 10.7 C 8.84 g/m*3 10.7 C 0 km/h
1407 24-06-2014 04:50:00 10.6 C 8.78 g/m*3 10.6 C 0 km/h
1408 24-06-2014 04:55:00 10.6 C 8.78 g/m*3 10.6 C 0 km/h
1409 24-06-2014 05:00:00 10.5 C 8.83 g/m*3 10.5 C 0 km/h
1410 24-06-2014 05:05:00 10.4 C 8.77 g/m*3 10.4 C 0 km/h
1411 24-06-2014 05:10:00 10.4 C 8.77 g/m*3 10.4 C 0 km/h
1412 24-06-2014 05:15:00 10.4 C 8.77 g/m*3 10.4 C 0 km/h
1413 24-06-2014 05:20:00 10.4 C 8.77 g/m*3 10.4 C 0 km/h
1414 24-06-2014 05:25:00 10.3 C 8.71 g/m*3 10.3 C 0 km/h
1415 24-06-2014 05:30:00 10.3 C 8.71 g/m*3 10.3 C 0 km/h
1416 24-06-2014 05:35:00 10.3 C 8.81 g/m*3 10.3 C 0 km/h
1417 24-06-2014 05:40:00 10.3 C 8.81 g/m*3 10.3 C 0 km/h
1418 24-06-2014 05:45:00 10.3 C 8.81 g/m*3 10.3 C 0 km/h
1419 24-06-2014 05:50:00 10.3 C 8.81 g/m*3 10.3 C 0 km/h
1420 24-06-2014 05:55:00 10.3 C 8.81 g/m*3 10.3 C 0 km/h
1421 24-06-2014 06:00:00 10.2 C 8.76 g/m*3 10.2 C 0 km/h
1422 24-06-2014 06:05:00 10.3 C 8.81 g/m*3 10.3 C 0 km/h
1423 24-06-2014 06:10:00 10.2 C 8.76 g/m*3 10.2 C 0 km/h
1424 24-06-2014 06:15:00 10.2 C 8.76 g/m*3 10.2 C 0 km/h
1425 24-06-2014 06:20:00 10.3 C 8.81 g/m*3 10.3 C 0 km/h
Sensor: Nr:Datum:Temp:Abs-Feuchte:Windchill:Wind:
Aussen-T/F 1426 24-06-2014 06:25:00 10.2 C 8.76 g/m*3 10.2 C 0 km/h
1427 24-06-2014 06:30:00 10.3 C 8.81 g/m*3 10.3 C 0 km/h
1428 24-06-2014 06:35:00 10.3 C 8.91 g/m*3 10.3 C 0 km/h
1429 24-06-2014 06:40:00 10.3 C 8.91 g/m*3 10.3 C 0 km/h
1430 24-06-2014 06:45:00 10.4 C 8.96 g/m*3 10.4 C 0 km/h
1431 24-06-2014 06:50:00 10.4 C 8.87 g/m*3 10.4 C 0 km/h
1432 24-06-2014 06:55:00 10.6 C 8.98 g/m*3 10.6 C 0 km/h
1433 24-06-2014 07:00:00 10.6 C 9.08 g/m*3 10.6 C 3.2 km/h
1434 24-06-2014 07:05:00 10.8 C 9.19 g/m*3 10.8 C 3.2 km/h
1435 24-06-2014 07:10:00 10.9 C 9.15 g/m*3 10.9 C 0 km/h
1436 24-06-2014 07:15:00 11.1 C 9.27 g/m*3 11.1 C 0 km/h
1437 24-06-2014 07:20:00 11.1 C 9.17 g/m*3 11.1 C 0 km/h
1438 24-06-2014 07:25:00 11.2 C 9.22 g/m*3 11.2 C 0 km/h
1439 24-06-2014 07:30:00 11.2 C 9.22 g/m*3 11.2 C 0 km/h
1440 24-06-2014 07:35:00 11.3 C 9.28 g/m*3 11.3 C 1.6 km/h
1441 24-06-2014 07:40:00 11.5 C 9.4 g/m*3 11.5 C 0 km/h
1442 24-06-2014 07:45:00 11.6 C 9.35 g/m*3 11.6 C 1.6 km/h
1443 24-06-2014 07:50:00 11.8 C 9.47 g/m*3 11.8 C 0 km/h
1444 24-06-2014 07:55:00 12 C 9.59 g/m*3 12 C 0 km/h
1445 24-06-2014 08:00:00 12.2 C 9.6 g/m*3 12.2 C 0 km/h
1446 24-06-2014 08:05:00 12.5 C 9.68 g/m*3 12.5 C 0 km/h
1447 24-06-2014 08:10:00 12.8 C 9.74 g/m*3 12.8 C 0 km/h
1448 24-06-2014 08:15:00 13.1 C 9.93 g/m*3 13.1 C 0 km/h
1449 24-06-2014 08:20:00 13.4 C 10 g/m*3 13.4 C 0 km/h
1450 24-06-2014 08:25:00 13.8 C 10.01 g/m*3 13.8 C 0 km/h
Sensor: Nr:Datum:Temp:Abs-Feuchte:Windchill:Wind:
Aussen-T/F 1451 24-06-2014 08:30:00 14.1 C 10.07 g/m*3 14.1 C 1.6 km/h
1452 24-06-2014 08:35:00 14.4 C 9.89 g/m*3 14.4 C 4.8 km/h
1453 24-06-2014 08:40:00 14.8 C 9.88 g/m*3 14.8 C 3.2 km/h
1454 24-06-2014 08:45:00 15.1 C 9.93 g/m*3 15.1 C 1.6 km/h
1455 24-06-2014 08:50:00 15.4 C 9.99 g/m*3 15.4 C 0 km/h
1456 24-06-2014 08:55:00 15.8 C 10.23 g/m*3 15.8 C 1.6 km/h
1457 24-06-2014 09:00:00 16.1 C 10.42 g/m*3 16.1 C 0 km/h
1458 24-06-2014 09:05:00 16.3 C 10.54 g/m*3 16.3 C 0 km/h
1459 24-06-2014 09:10:00 16.6 C 10.59 g/m*3 16.6 C 0 km/h
1460 24-06-2014 09:15:00 16.7 C 10.37 g/m*3 16.7 C 0 km/h
1461 24-06-2014 09:20:00 16.6 C 10.45 g/m*3 16.6 C 0 km/h
1462 24-06-2014 09:25:00 16.4 C 10.47 g/m*3 16.4 C 0 km/h
1463 24-06-2014 09:30:00 16.3 C 10.54 g/m*3 16.3 C 1.6 km/h
1464 24-06-2014 09:35:00 16.6 C 10.59 g/m*3 16.6 C 3.2 km/h
1465 24-06-2014 09:40:00 16.9 C 10.5 g/m*3 16.9 C 1.6 km/h
1466 24-06-2014 09:45:00 17.3 C 10.75 g/m*3 17.3 C 3.2 km/h
1467 24-06-2014 09:50:00 17.6 C 10.8 g/m*3 17.6 C 3.2 km/h
1468 24-06-2014 09:55:00 17.9 C 10.69 g/m*3 17.9 C 1.6 km/h
1469 24-06-2014 10:00:00 18.2 C 11.04 g/m*3 18.2 C 1.6 km/h
1470 24-06-2014 10:05:00 18.6 C 10.66 g/m*3 18.6 C 1.6 km/h
1471 24-06-2014 10:10:00 19 C 11.24 g/m*3 19 C 3.2 km/h
1472 24-06-2014 10:15:00 19.6 C 10.97 g/m*3 19.6 C 4.8 km/h
1473 24-06-2014 10:20:00 19.9 C 10.31 g/m*3 19.9 C 3.2 km/h
1474 24-06-2014 10:25:00 20.1 C 10.26 g/m*3 20.1 C 3.2 km/h
1475 24-06-2014 10:30:00 20.3 C 10.55 g/m*3 20.3 C 3.2 km/h
Sensor: Nr:Datum:Temp:Abs-Feuchte:Windchill:Wind:
Aussen-T/F 1476 24-06-2014 10:35:00 20.6 C 10.56 g/m*3 20.6 C 4.8 km/h
1477 24-06-2014 10:40:00 20.7 C 10.44 g/m*3 20.7 C 3.2 km/h
1478 24-06-2014 10:45:00 20.8 C 10.86 g/m*3 20.8 C 4.8 km/h
1479 24-06-2014 10:50:00 20.8 C 10.14 g/m*3 20.8 C 6.4 km/h
1480 24-06-2014 10:55:00 20.9 C 10.2 g/m*3 20.9 C 6.4 km/h
1481 24-06-2014 11:00:00 21 C 9.89 g/m*3 21 C 6.4 km/h
1482 24-06-2014 11:05:00 21 C 9.71 g/m*3 21 C 4.8 km/h
1483 24-06-2014 11:10:00 21.1 C 9.95 g/m*3 21.1 C 6.4 km/h
1484 24-06-2014 11:15:00 21.3 C 10.07 g/m*3 21.3 C 4.8 km/h
1485 24-06-2014 11:20:00 21.4 C 9.75 g/m*3 21.4 C 8.1 km/h
1486 24-06-2014 11:25:00 21.4 C 9.94 g/m*3 21.4 C 6.4 km/h
1487 24-06-2014 11:30:00 21.6 C 9.48 g/m*3 21.6 C 4.8 km/h
1488 24-06-2014 11:35:00 21.8 C 9.78 g/m*3 21.8 C 4.8 km/h
1489 24-06-2014 11:40:00 21.7 C 8.58 g/m*3 21.7 C 4.8 km/h
1490 24-06-2014 11:45:00 21.8 C 9.4 g/m*3 21.8 C 3.2 km/h
1491 24-06-2014 11:50:00 21.8 C 9.4 g/m*3 21.8 C 4.8 km/h
1492 24-06-2014 11:55:00 21.8 C 9.59 g/m*3 21.8 C 1.6 km/h
1493 24-06-2014 12:00:00 22.1 C 9.56 g/m*3 22.1 C 4.8 km/h
1494 24-06-2014 12:05:00 22.3 C 9.48 g/m*3 22.3 C 8.1 km/h
1495 24-06-2014 12:10:00 22.5 C 9.39 g/m*3 22.5 C 8.1 km/h
1496 24-06-2014 12:15:00 22.8 C 9.55 g/m*3 22.8 C 9.7 km/h
1497 24-06-2014 12:20:00 23 C 9.25 g/m*3 23 C 6.4 km/h
1498 24-06-2014 12:25:00 23.1 C 9.3 g/m*3 23.1 C 3.2 km/h
1499 24-06-2014 12:30:00 23.2 C 9.15 g/m*3 23.2 C 6.4 km/h
1500 24-06-2014 12:35:00 23.4 C 9.67 g/m*3 23.4 C 8.1 km/h
Sensor: Nr:Datum:Temp:Abs-Feuchte:Windchill:Wind:
Aussen-T/F 1501 24-06-2014 12:40:00 23.3 C 9.2 g/m*3 23.3 C 6.4 km/h
1502 24-06-2014 12:45:00 23.6 C 9.57 g/m*3 23.6 C 6.4 km/h
1503 24-06-2014 12:50:00 23.9 C 9.74 g/m*3 23.9 C 11.3 km/h
1504 24-06-2014 12:55:00 23.7 C 9.2 g/m*3 23.7 C 11.3 km/h
1505 24-06-2014 13:00:00 23.4 C 9.46 g/m*3 23.4 C 3.2 km/h
1506 24-06-2014 13:05:00 23.4 C 9.25 g/m*3 23.4 C 4.8 km/h
1507 24-06-2014 13:10:00 23.4 C 9.46 g/m*3 23.4 C 11.3 km/h
1508 24-06-2014 13:15:00 23.4 C 9.04 g/m*3 23.4 C 6.4 km/h
1509 24-06-2014 13:20:00 23.3 C 8.99 g/m*3 23.3 C 6.4 km/h
1510 24-06-2014 13:25:00 23.2 C 8.73 g/m*3 23.2 C 3.2 km/h
1511 24-06-2014 13:30:00 23.3 C 9.62 g/m*3 23.3 C 6.4 km/h
1512 24-06-2014 13:35:00 23.3 C 9.2 g/m*3 23.3 C 6.4 km/h
1513 24-06-2014 13:40:00 23.1 C 8.89 g/m*3 23.1 C 1.6 km/h
1514 24-06-2014 13:45:00 22.9 C 8.99 g/m*3 22.9 C 9.7 km/h
1515 24-06-2014 13:50:00 22.7 C 8.89 g/m*3 22.7 C 6.4 km/h
1516 24-06-2014 13:55:00 22.6 C 9.04 g/m*3 22.6 C 6.4 km/h
1517 24-06-2014 14:00:00 22.6 C 8.84 g/m*3 22.6 C 6.4 km/h
1518 24-06-2014 14:05:00 22.8 C 9.14 g/m*3 22.8 C 8.1 km/h
1519 24-06-2014 14:10:00 22.9 C 9.4 g/m*3 22.9 C 4.8 km/h
1520 24-06-2014 14:15:00 23.1 C 9.3 g/m*3 23.1 C 4.8 km/h
1521 24-06-2014 14:20:00 23.1 C 8.89 g/m*3 23.1 C 3.2 km/h
1522 24-06-2014 14:25:00 23 C 9.04 g/m*3 23 C 8.1 km/h
1523 24-06-2014 14:30:00 23.1 C 9.3 g/m*3 23.1 C 1.6 km/h
1524 24-06-2014 14:35:00 23.2 C 9.36 g/m*3 23.2 C 4.8 km/h
1525 24-06-2014 14:40:00 23.4 C 9.46 g/m*3 23.4 C 8.1 km/h
Sensor: Nr:Datum:Temp:Abs-Feuchte:Windchill:Wind:
Aussen-T/F 1526 24-06-2014 14:45:00 23.3 C 8.99 g/m*3 23.3 C 8.1 km/h
1527 24-06-2014 14:50:00 23.3 C 9.62 g/m*3 23.3 C 6.4 km/h
1528 24-06-2014 14:55:00 23.3 C 9.2 g/m*3 23.3 C 4.8 km/h
1529 24-06-2014 15:00:00 23.4 C 9.25 g/m*3 23.4 C 8.1 km/h
1530 24-06-2014 15:05:00 23.4 C 9.04 g/m*3 23.4 C 6.4 km/h
1531 24-06-2014 15:10:00 23.2 C 9.15 g/m*3 23.2 C 3.2 km/h
1532 24-06-2014 15:15:00 23.1 C 9.3 g/m*3 23.1 C 3.2 km/h
1533 24-06-2014 15:20:00 23.3 C 10.04 g/m*3 23.3 C 3.2 km/h
1534 24-06-2014 15:25:00 23.8 C 9.68 g/m*3 23.8 C 3.2 km/h
1535 24-06-2014 15:30:00 24 C 9.57 g/m*3 24 C 6.4 km/h
1536 24-06-2014 15:35:00 24 C 9.57 g/m*3 24 C 9.7 km/h
1537 24-06-2014 15:40:00 24.2 C 9.68 g/m*3 24.2 C 8.1 km/h
1538 24-06-2014 15:45:00 24.3 C 9.96 g/m*3 24.3 C 6.4 km/h
1539 24-06-2014 15:50:00 24.5 C 9.4 g/m*3 24.5 C 3.2 km/h
1540 24-06-2014 15:55:00 24.4 C 9.12 g/m*3 24.4 C 6.4 km/h
1541 24-06-2014 16:00:00 23.9 C 9.74 g/m*3 23.9 C 1.6 km/h
1542 24-06-2014 16:05:00 23.6 C 9.36 g/m*3 23.6 C 0 km/h
1543 24-06-2014 16:10:00 23.4 C 10.93 g/m*3 23.4 C 0 km/h
1544 24-06-2014 16:15:00 23 C 10.28 g/m*3 23 C 0 km/h
1545 24-06-2014 16:20:00 22.7 C 10.71 g/m*3 22.7 C 0 km/h
1546 24-06-2014 16:25:00 22.6 C 9.04 g/m*3 22.6 C 3.2 km/h
1547 24-06-2014 16:30:00 22.6 C 9.04 g/m*3 22.6 C 3.2 km/h
1548 24-06-2014 16:35:00 22.7 C 9.09 g/m*3 22.7 C 6.4 km/h
1549 24-06-2014 16:40:00 22.8 C 9.35 g/m*3 22.8 C 4.8 km/h
1550 24-06-2014 16:45:00 22.8 C 9.14 g/m*3 22.8 C 9.7 km/h
Sensor: Nr:Datum:Temp:Abs-Feuchte:Windchill:Wind:
Aussen-T/F 1551 24-06-2014 16:50:00 22.7 C 9.09 g/m*3 22.7 C 9.7 km/h
1552 24-06-2014 16:55:00 22.4 C 10.13 g/m*3 22.4 C 29 km/h
1553 24-06-2014 17:00:00 20.9 C 12.2 g/m*3 20.9 C 29 km/h
1554 24-06-2014 17:05:00 20.8 C 12.31 g/m*3 20.8 C 14.5 km/h
1555 24-06-2014 17:10:00 18.7 C 12.01 g/m*3 18.7 C 8.1 km/h
1556 24-06-2014 17:15:00 17.9 C 12.37 g/m*3 17.9 C 4.8 km/h
1557 24-06-2014 17:20:00 17.4 C 12.6 g/m*3 17.4 C 3.2 km/h
1558 24-06-2014 17:25:00 17.2 C 12.74 g/m*3 17.2 C 1.6 km/h
1559 24-06-2014 17:30:00 17.1 C 12.81 g/m*3 17.1 C 1.6 km/h
1560 24-06-2014 17:35:00 17 C 12.88 g/m*3 17 C 0 km/h
1561 24-06-2014 17:40:00 17 C 13.17 g/m*3 17 C 0 km/h
1562 24-06-2014 17:45:00 16.9 C 12.94 g/m*3 16.9 C 0 km/h
1563 24-06-2014 17:50:00 16.8 C 12.87 g/m*3 16.8 C 1.6 km/h
1564 24-06-2014 17:55:00 16.9 C 12.66 g/m*3 16.9 C 12.9 km/h
1565 24-06-2014 18:00:00 17.3 C 12.08 g/m*3 17.3 C 11.3 km/h
1566 24-06-2014 18:05:00 17.4 C 12.3 g/m*3 17.4 C 4.8 km/h
1567 24-06-2014 18:10:00 17.2 C 12.15 g/m*3 17.2 C 3.2 km/h
1568 24-06-2014 18:15:00 16.8 C 12.44 g/m*3 16.8 C 3.2 km/h
1569 24-06-2014 18:20:00 16.6 C 12.43 g/m*3 16.6 C 0 km/h
1570 24-06-2014 18:25:00 16.3 C 12.35 g/m*3 16.3 C 0 km/h
1571 24-06-2014 18:30:00 16 C 12.26 g/m*3 16 C 0 km/h
1572 24-06-2014 18:35:00 16 C 12.26 g/m*3 16 C 0 km/h
1573 24-06-2014 19:00:00 15.2 C 12.2 g/m*3 15.2 C 1.6 km/h
1574 24-06-2014 19:05:00 15.2 C 12.2 g/m*3 15.2 C 1.6 km/h
1575 24-06-2014 22:20:00 13.5 C 11.7 g/m*3 13.5 C 0 km/h
Sensor: Nr:Datum:Temp:Abs-Feuchte:Windchill:Wind:
Aussen-T/F 1576 24-06-2014 22:25:00 13.5 C 11.7 g/m*3 13.5 C 1.6 km/h
1577 24-06-2014 22:30:00 13.5 C 11.7 g/m*3 13.5 C 0 km/h
1578 24-06-2014 22:35:00 13.5 C 11.7 g/m*3 13.5 C 0 km/h
1579 24-06-2014 22:40:00 13.5 C 11.7 g/m*3 13.5 C 0 km/h
1580 25-06-2014 08:20:00 14.1 C 12.14 g/m*3 14.1 C 9.7 km/h
1581 25-06-2014 08:25:00 14.2 C 12.21 g/m*3 14.2 C 9.7 km/h
1582 25-06-2014 08:30:00 14.3 C 12.29 g/m*3 14.3 C 11.3 km/h
1583 25-06-2014 08:35:00 14.3 C 12.29 g/m*3 14.3 C 14.5 km/h
1584 25-06-2014 08:40:00 14.2 C 9.65 g/m*3 14.2 C 12.9 km/h
1585 25-06-2014 08:45:00 14.2 C 9.52 g/m*3 14.2 C 17.7 km/h
1586 25-06-2014 08:50:00 14.2 C 9.52 g/m*3 14.2 C 11.3 km/h
1587 25-06-2014 08:55:00 14.1 C 9.59 g/m*3 14.1 C 8.1 km/h
1588 25-06-2014 09:00:00 13.9 C 9.35 g/m*3 13.9 C 12.9 km/h
1589 25-06-2014 09:05:00 13.8 C 9.65 g/m*3 13.8 C 4.8 km/h
1590 25-06-2014 09:10:00 14.1 C 9.71 g/m*3 14.1 C 6.4 km/h
1591 25-06-2014 09:15:00 14.5 C 9.58 g/m*3 14.5 C 16.1 km/h
1592 25-06-2014 09:20:00 14.7 C 9.32 g/m*3 14.7 C 17.7 km/h
1593 25-06-2014 09:25:00 14.8 C 9.37 g/m*3 14.8 C 14.5 km/h
1594 25-06-2014 09:30:00 14.9 C 9.3 g/m*3 14.9 C 17.7 km/h
1595 25-06-2014 09:35:00 15 C 9.1 g/m*3 15 C 12.9 km/h
1596 25-06-2014 09:40:00 15.1 C 9.16 g/m*3 15.1 C 9.7 km/h
1597 25-06-2014 09:45:00 15.2 C 9.35 g/m*3 15.2 C 9.7 km/h
1598 25-06-2014 09:50:00 15.4 C 9.07 g/m*3 15.4 C 16.1 km/h
1599 25-06-2014 09:55:00 15.6 C 8.91 g/m*3 15.6 C 11.3 km/h
1600 25-06-2014 10:00:00 15.6 C 8.91 g/m*3 15.6 C 14.5 km/h
Sensor: Nr:Datum:Temp:Abs-Feuchte:Windchill:Wind:
Aussen-T/F 1601 25-06-2014 10:05:00 15.3 C 8.75 g/m*3 15.3 C 14.5 km/h
1602 25-06-2014 10:10:00 15.2 C 8.7 g/m*3 15.2 C 12.9 km/h
1603 25-06-2014 10:15:00 15.2 C 8.7 g/m*3 15.2 C 19.3 km/h
1604 25-06-2014 10:20:00 15.2 C 8.44 g/m*3 15.2 C 17.7 km/h
1605 25-06-2014 10:25:00 15.3 C 8.62 g/m*3 15.3 C 9.7 km/h
1606 25-06-2014 10:30:00 15.7 C 8.7 g/m*3 15.7 C 14.5 km/h
1607 25-06-2014 10:35:00 15.8 C 8.48 g/m*3 15.8 C 16.1 km/h
1608 25-06-2014 10:40:00 15.7 C 8.56 g/m*3 15.7 C 9.7 km/h
1609 25-06-2014 10:45:00 16 C 8.45 g/m*3 16 C 16.1 km/h
1610 25-06-2014 10:50:00 16.1 C 8.09 g/m*3 16.1 C 19.3 km/h
1611 25-06-2014 10:55:00 16.3 C 7.63 g/m*3 16.3 C 11.3 km/h
1612 25-06-2014 11:00:00 16.8 C 8.01 g/m*3 16.8 C 12.9 km/h
1613 25-06-2014 11:05:00 17.3 C 8.84 g/m*3 17.3 C 16.1 km/h
1614 25-06-2014 11:10:00 17.3 C 8.1 g/m*3 17.3 C 14.5 km/h
1615 25-06-2014 11:15:00 16.8 C 8.01 g/m*3 16.8 C 12.9 km/h
1616 25-06-2014 11:20:00 16.4 C 7.82 g/m*3 16.4 C 20.9 km/h
1617 25-06-2014 11:25:00 16.1 C 8.22 g/m*3 16.1 C 12.9 km/h
1618 25-06-2014 11:30:00 16.3 C 7.91 g/m*3 16.3 C 12.9 km/h
1619 25-06-2014 11:35:00 16.9 C 8.49 g/m*3 16.9 C 11.3 km/h
1620 25-06-2014 11:40:00 17.4 C 8.45 g/m*3 17.4 C 16.1 km/h
1621 25-06-2014 11:45:00 17.7 C 8.15 g/m*3 17.7 C 11.3 km/h
1622 25-06-2014 11:50:00 17.7 C 8.15 g/m*3 17.7 C 12.9 km/h
1623 25-06-2014 11:55:00 17.9 C 8.24 g/m*3 17.9 C 12.9 km/h
1624 25-06-2014 12:00:00 18.1 C 8.19 g/m*3 18.1 C 11.3 km/h
1625 25-06-2014 12:05:00 17.9 C 7.63 g/m*3 17.9 C 17.7 km/h
Sensor: Nr:Datum:Temp:Abs-Feuchte:Windchill:Wind:
Aussen-T/F 1626 25-06-2014 12:10:00 17.6 C 7.65 g/m*3 17.6 C 16.1 km/h
1627 25-06-2014 12:15:00 17.8 C 7.59 g/m*3 17.8 C 12.9 km/h
1628 25-06-2014 12:20:00 18.2 C 7.77 g/m*3 18.2 C 16.1 km/h
1629 25-06-2014 12:25:00 18.4 C 7.71 g/m*3 18.4 C 16.1 km/h
1630 25-06-2014 12:30:00 18.3 C 7.97 g/m*3 18.3 C 17.7 km/h
1631 25-06-2014 12:35:00 17.7 C 7.69 g/m*3 17.7 C 16.1 km/h
1632 25-06-2014 12:40:00 17.4 C 7.71 g/m*3 17.4 C 14.5 km/h
1633 25-06-2014 12:45:00 17.3 C 7.81 g/m*3 17.3 C 14.5 km/h
1634 25-06-2014 12:50:00 17.3 C 7.96 g/m*3 17.3 C 12.9 km/h
1635 25-06-2014 12:55:00 17.4 C 7.56 g/m*3 17.4 C 12.9 km/h
1636 25-06-2014 13:00:00 17.4 C 7.85 g/m*3 17.4 C 9.7 km/h
1637 25-06-2014 13:05:00 17.7 C 8 g/m*3 17.7 C 8.1 km/h
1638 25-06-2014 13:10:00 18.1 C 8.03 g/m*3 18.1 C 14.5 km/h
1639 25-06-2014 13:15:00 18.1 C 7.88 g/m*3 18.1 C 11.3 km/h
1640 25-06-2014 13:20:00 18 C 7.83 g/m*3 18 C 12.9 km/h
1641 25-06-2014 13:25:00 17.9 C 7.79 g/m*3 17.9 C 11.3 km/h
1642 25-06-2014 13:30:00 17.8 C 7.89 g/m*3 17.8 C 9.7 km/h
1643 25-06-2014 13:35:00 17.9 C 7.63 g/m*3 17.9 C 12.9 km/h
1644 25-06-2014 13:40:00 17.8 C 7.74 g/m*3 17.8 C 11.3 km/h
1645 25-06-2014 13:45:00 17.6 C 7.5 g/m*3 17.6 C 6.4 km/h
1646 25-06-2014 13:50:00 17.9 C 8.24 g/m*3 17.9 C 11.3 km/h
1647 25-06-2014 13:55:00 18.2 C 7.93 g/m*3 18.2 C 6.4 km/h
1648 25-06-2014 14:00:00 18.3 C 7.51 g/m*3 18.3 C 12.9 km/h
1649 25-06-2014 14:05:00 18.3 C 7.82 g/m*3 18.3 C 9.7 km/h
1650 25-06-2014 14:10:00 18.2 C 7.77 g/m*3 18.2 C 17.7 km/h
Sensor: Nr:Datum:Temp:Abs-Feuchte:Windchill:Wind:
Aussen-T/F 1651 25-06-2014 14:15:00 17.8 C 7.89 g/m*3 17.8 C 11.3 km/h
1652 25-06-2014 14:20:00 17.9 C 8.24 g/m*3 17.9 C 12.9 km/h
1653 25-06-2014 14:25:00 18.7 C 7.68 g/m*3 18.7 C 16.1 km/h
1654 25-06-2014 14:30:00 18.8 C 7.89 g/m*3 18.8 C 17.7 km/h
1655 25-06-2014 14:35:00 18.9 C 8.1 g/m*3 18.9 C 14.5 km/h
1656 25-06-2014 14:40:00 18.9 C 7.78 g/m*3 18.9 C 12.9 km/h
1657 25-06-2014 14:45:00 18.9 C 7.78 g/m*3 18.9 C 9.7 km/h
1658 25-06-2014 14:50:00 18.7 C 7.68 g/m*3 18.7 C 9.7 km/h
1659 25-06-2014 14:55:00 18.4 C 7.86 g/m*3 18.4 C 11.3 km/h
1660 25-06-2014 15:00:00 18.2 C 7.62 g/m*3 18.2 C 9.7 km/h
1661 25-06-2014 15:05:00 17.9 C 7.63 g/m*3 17.9 C 9.7 km/h
1662 25-06-2014 15:10:00 17.8 C 7.74 g/m*3 17.8 C 9.7 km/h
1663 25-06-2014 15:15:00 17.8 C 7.74 g/m*3 17.8 C 9.7 km/h
1664 25-06-2014 15:20:00 17.9 C 7.94 g/m*3 17.9 C 9.7 km/h
1665 25-06-2014 15:25:00 18.2 C 7.93 g/m*3 18.2 C 11.3 km/h
1666 25-06-2014 15:30:00 18.6 C 7.96 g/m*3 18.6 C 8.1 km/h
1667 25-06-2014 15:35:00 18.8 C 8.05 g/m*3 18.8 C 14.5 km/h
1668 25-06-2014 15:40:00 19.3 C 7.96 g/m*3 19.3 C 19.3 km/h
1669 25-06-2014 15:45:00 19.1 C 7.7 g/m*3 19.1 C 16.1 km/h
1670 25-06-2014 15:50:00 18.8 C 7.57 g/m*3 18.8 C 9.7 km/h
1671 25-06-2014 15:55:00 18.6 C 7.48 g/m*3 18.6 C 9.7 km/h
1672 25-06-2014 16:00:00 18.7 C 7.84 g/m*3 18.7 C 11.3 km/h
1673 25-06-2014 16:05:00 19.3 C 7.46 g/m*3 19.3 C 8.1 km/h
1674 25-06-2014 16:10:00 20.1 C 7.82 g/m*3 20.1 C 12.9 km/h
1675 25-06-2014 16:15:00 20.5 C 7.47 g/m*3 20.5 C 6.4 km/h
Sensor: Nr:Datum:Temp:Abs-Feuchte:Windchill:Wind:
Aussen-T/F 1676 25-06-2014 16:20:00 20.1 C 7.13 g/m*3 20.1 C 11.3 km/h
1677 25-06-2014 16:25:00 19.8 C 7.34 g/m*3 19.8 C 6.4 km/h
1678 25-06-2014 16:30:00 19.5 C 7.38 g/m*3 19.5 C 9.7 km/h
1679 25-06-2014 16:35:00 19.3 C 7.46 g/m*3 19.3 C 11.3 km/h
1680 25-06-2014 16:40:00 19.8 C 7.52 g/m*3 19.8 C 8.1 km/h
1681 25-06-2014 16:45:00 20.2 C 7.34 g/m*3 20.2 C 11.3 km/h
1682 25-06-2014 16:50:00 20 C 7.09 g/m*3 20 C 8.1 km/h
1683 25-06-2014 16:55:00 19.6 C 7.26 g/m*3 19.6 C 9.7 km/h
1684 25-06-2014 17:00:00 19.2 C 7.42 g/m*3 19.2 C 11.3 km/h
1685 25-06-2014 17:05:00 18.9 C 7.13 g/m*3 18.9 C 12.9 km/h
1686 25-06-2014 17:10:00 19.1 C 7.54 g/m*3 19.1 C 9.7 km/h
1687 25-06-2014 17:15:00 19.7 C 7.3 g/m*3 19.7 C 11.3 km/h
1688 25-06-2014 17:20:00 20.1 C 7.3 g/m*3 20.1 C 12.9 km/h
1689 25-06-2014 17:25:00 19.8 C 7.34 g/m*3 19.8 C 11.3 km/h
1690 25-06-2014 17:30:00 19.7 C 7.81 g/m*3 19.7 C 9.7 km/h
1691 25-06-2014 17:35:00 20.3 C 7.56 g/m*3 20.3 C 14.5 km/h
1692 25-06-2014 17:40:00 20.2 C 7.34 g/m*3 20.2 C 8.1 km/h
1693 25-06-2014 17:45:00 19.7 C 7.47 g/m*3 19.7 C 11.3 km/h
1694 25-06-2014 17:50:00 19.5 C 7.89 g/m*3 19.5 C 6.4 km/h
1695 25-06-2014 17:55:00 19.8 C 7.34 g/m*3 19.8 C 4.8 km/h
1696 25-06-2014 18:00:00 20.1 C 7.3 g/m*3 20.1 C 4.8 km/h
1697 25-06-2014 18:05:00 20.2 C 7.69 g/m*3 20.2 C 6.4 km/h
1698 25-06-2014 18:10:00 20.6 C 7.52 g/m*3 20.6 C 9.7 km/h
1699 25-06-2014 18:15:00 20.7 C 7.92 g/m*3 20.7 C 12.9 km/h
1700 25-06-2014 18:20:00 20.9 C 7.65 g/m*3 20.9 C 8.1 km/h
Sensor: Nr:Datum:Temp:Abs-Feuchte:Windchill:Wind:
Aussen-T/F 1701 25-06-2014 18:25:00 20.8 C 7.79 g/m*3 20.8 C 8.1 km/h
1702 25-06-2014 18:30:00 21.1 C 7.19 g/m*3 21.1 C 11.3 km/h
1703 25-06-2014 18:35:00 20.9 C 7.47 g/m*3 20.9 C 9.7 km/h
1704 25-06-2014 18:40:00 20.7 C 7.56 g/m*3 20.7 C 11.3 km/h
1705 25-06-2014 18:45:00 20.8 C 7.6 g/m*3 20.8 C 9.7 km/h
1706 25-06-2014 18:50:00 21.1 C 7.37 g/m*3 21.1 C 11.3 km/h
1707 25-06-2014 18:55:00 21.1 C 7.92 g/m*3 21.1 C 12.9 km/h
1708 25-06-2014 19:00:00 21 C 7.69 g/m*3 21 C 11.3 km/h
1709 25-06-2014 19:05:00 20.8 C 7.42 g/m*3 20.8 C 9.7 km/h
1710 25-06-2014 19:10:00 20.4 C 7.43 g/m*3 20.4 C 11.3 km/h
1711 25-06-2014 19:15:00 20.1 C 7.65 g/m*3 20.1 C 9.7 km/h
1712 25-06-2014 19:20:00 20 C 7.6 g/m*3 20 C 9.7 km/h
1713 25-06-2014 19:25:00 19.7 C 7.64 g/m*3 19.7 C 9.7 km/h
1714 25-06-2014 19:30:00 19.4 C 7.51 g/m*3 19.4 C 11.3 km/h
1715 25-06-2014 19:35:00 19.1 C 7.54 g/m*3 19.1 C 9.7 km/h
1716 25-06-2014 19:40:00 19.1 C 7.54 g/m*3 19.1 C 9.7 km/h
1717 25-06-2014 19:45:00 19.2 C 7.59 g/m*3 19.2 C 9.7 km/h
1718 25-06-2014 19:50:00 19.3 C 7.63 g/m*3 19.3 C 8.1 km/h
1719 25-06-2014 19:55:00 19.3 C 7.63 g/m*3 19.3 C 9.7 km/h
1720 25-06-2014 20:00:00 19.3 C 7.8 g/m*3 19.3 C 11.3 km/h
1721 25-06-2014 20:05:00 19.2 C 7.91 g/m*3 19.2 C 9.7 km/h
1722 25-06-2014 20:10:00 19 C 7.66 g/m*3 19 C 11.3 km/h
1723 25-06-2014 20:15:00 18.8 C 7.89 g/m*3 18.8 C 9.7 km/h
1724 25-06-2014 20:20:00 18.8 C 7.73 g/m*3 18.8 C 6.4 km/h
1725 25-06-2014 20:25:00 18.9 C 7.94 g/m*3 18.9 C 9.7 km/h
Sensor: Nr:Datum:Temp:Abs-Feuchte:Windchill:Wind:
Aussen-T/F 1726 25-06-2014 20:30:00 18.8 C 7.89 g/m*3 18.8 C 8.1 km/h
1727 25-06-2014 20:35:00 18.7 C 8.01 g/m*3 18.7 C 8.1 km/h
1728 25-06-2014 20:40:00 18.6 C 7.96 g/m*3 18.6 C 11.3 km/h
1729 25-06-2014 20:45:00 18.4 C 7.86 g/m*3 18.4 C 8.1 km/h
1730 25-06-2014 20:50:00 18.3 C 7.97 g/m*3 18.3 C 14.5 km/h
1731 25-06-2014 20:55:00 18.1 C 7.88 g/m*3 18.1 C 8.1 km/h
1732 25-06-2014 21:00:00 17.8 C 7.89 g/m*3 17.8 C 8.1 km/h
1733 25-06-2014 21:05:00 17.7 C 8 g/m*3 17.7 C 8.1 km/h
1734 25-06-2014 21:10:00 17.6 C 8.1 g/m*3 17.6 C 3.2 km/h
1735 25-06-2014 21:15:00 17.5 C 8.05 g/m*3 17.5 C 3.2 km/h
1736 25-06-2014 21:20:00 17.3 C 8.1 g/m*3 17.3 C 4.8 km/h
1737 25-06-2014 21:25:00 17 C 8.39 g/m*3 17 C 0 km/h
1738 25-06-2014 21:30:00 16.5 C 8.43 g/m*3 16.5 C 0 km/h
1739 25-06-2014 21:35:00 15.9 C 8.26 g/m*3 15.9 C 0 km/h
1740 25-06-2014 21:40:00 15.5 C 8.33 g/m*3 15.5 C 0 km/h
1741 25-06-2014 21:45:00 15.2 C 8.31 g/m*3 15.2 C 0 km/h
1742 25-06-2014 21:50:00 14.9 C 8.41 g/m*3 14.9 C 0 km/h
1743 25-06-2014 21:55:00 14.7 C 8.44 g/m*3 14.7 C 0 km/h
1744 25-06-2014 22:00:00 14.5 C 8.46 g/m*3 14.5 C 0 km/h
1745 25-06-2014 22:05:00 14.3 C 8.48 g/m*3 14.3 C 0 km/h
1746 25-06-2014 22:10:00 14.2 C 8.67 g/m*3 14.2 C 0 km/h
1747 25-06-2014 22:15:00 14 C 8.56 g/m*3 14 C 0 km/h
1748 25-06-2014 22:20:00 13.8 C 8.58 g/m*3 13.8 C 0 km/h
1749 25-06-2014 22:25:00 13.7 C 8.53 g/m*3 13.7 C 0 km/h
1750 25-06-2014 22:30:00 13.6 C 8.47 g/m*3 13.6 C 0 km/h
Sensor: Nr:Datum:Temp:Abs-Feuchte:Windchill:Wind:
Aussen-T/F 1751 25-06-2014 22:35:00 13.5 C 8.54 g/m*3 13.5 C 0 km/h
1752 25-06-2014 22:40:00 13.4 C 8.49 g/m*3 13.4 C 0 km/h
1753 25-06-2014 22:45:00 13.3 C 8.43 g/m*3 13.3 C 0 km/h
1754 25-06-2014 22:50:00 13.2 C 8.5 g/m*3 13.2 C 0 km/h
1755 25-06-2014 22:55:00 13.2 C 8.5 g/m*3 13.2 C 0 km/h
1756 25-06-2014 23:00:00 13.1 C 8.44 g/m*3 13.1 C 0 km/h
1757 25-06-2014 23:05:00 13.1 C 8.44 g/m*3 13.1 C 0 km/h
1758 25-06-2014 23:10:00 13 C 8.39 g/m*3 13 C 0 km/h
1759 25-06-2014 23:15:00 12.9 C 8.45 g/m*3 12.9 C 0 km/h
1760 25-06-2014 23:20:00 12.9 C 8.45 g/m*3 12.9 C 0 km/h
1761 25-06-2014 23:25:00 12.7 C 8.35 g/m*3 12.7 C 0 km/h
1762 25-06-2014 23:30:00 12.7 C 8.46 g/m*3 12.7 C 0 km/h
1763 25-06-2014 23:35:00 12.5 C 8.47 g/m*3 12.5 C 0 km/h
1764 25-06-2014 23:40:00 12.3 C 8.47 g/m*3 12.3 C 0 km/h
1765 25-06-2014 23:45:00 12.1 C 8.47 g/m*3 12.1 C 0 km/h
1766 25-06-2014 23:50:00 11.9 C 8.37 g/m*3 11.9 C 0 km/h
1767 25-06-2014 23:55:00 11.8 C 8.31 g/m*3 11.8 C 0 km/h

Legende:
   Min
   Max


Maximal/Minimal-Werte vom 19.06.2014 - 25.06.2014

Sensor Min Max Avg
Temp
(Aussen-T/F)
9.4 °C
22-06-2014  04:35:00
24.7 °C
23-06-2014  16:45:00
16.52 °C
Abs-Feuchte
(Aussen-T/F)
7.09 g/m*3
25-06-2014  16:50:00
13.17 g/m*3
24-06-2014  17:40:00
9.2 g/m*3
Windchill
(Aussen-T/F)
9.37 C
22-06-2014  06:05:00
24.7 C
23-06-2014  16:45:00
16.51 C

Die Daten stammen von einer Davis Vantage Pro 2 Wetter-Station und werden unter Linux mit der Software wview2wettercgi und aufbereitet. Alle Angaben erfolgen ohne Gewähr für ihre Vollständigkeit oder Richtigkeit.
Kontakt: Rainer Krienke krienke@uni-koblenz.de . Meine Webseiten an der Uni Koblenz oder privat.
Version: $Revision: 0.78 $